<?xml version="1.0" encoding="UTF-8"?>
<gpx version="1.1" creator="2bulu-scraper" xmlns="http://www.topografix.com/GPX/1/1">
  <metadata><name>泸州纳溪区鼓楼山环线</name><desc>source: 2bulu.com trackId=76831119; exported 2026-09-01T14:47:27.242Z</desc>
    <bounds minlat="28.7303367" minlon="105.5661816" maxlat="28.7439857" maxlon="105.5927596"/>
    <link href="https://www.2bulu.com/track/t-9byYX%252FNH70rp%252FR2KBg5Tzw%253D%253D.htm"><text>2bulu 源页面</text></link>
  </metadata>
  <wpt lat="28.7409832" lon="105.5661816"><ele>655</ele><name>
        </name></wpt>
  <wpt lat="28.7410946" lon="105.5663781"><ele>659</ele><name>
        </name></wpt>
  <wpt lat="28.7436808" lon="105.5697038"><ele>689</ele><name>看石笋的观景台
        </name></wpt>
  <wpt lat="28.743882" lon="105.5695452"><ele>668</ele><name>石笋观景台
        </name></wpt>
  <wpt lat="28.7439599" lon="105.5694646"><ele>654</ele><name>正在修路，可能未来可以围着山腰徒步
        </name></wpt>
  <wpt lat="28.7436137" lon="105.570131"><ele>694</ele><name>竹林随便走
        </name></wpt>
  <wpt lat="28.742559" lon="105.5732922"><ele>691</ele><name>
        </name></wpt>
  <wpt lat="28.7411575" lon="105.5808143"><ele>656</ele><name>下面有个四合院
        </name></wpt>
  <wpt lat="28.7393315" lon="105.5883031"><ele>657</ele><name>翅果，旋转下落很好看
        </name></wpt>
  <wpt lat="28.7377599" lon="105.5911767"><ele>640</ele><name>大石坝
        </name></wpt>
  <wpt lat="28.7365181" lon="105.5908679"><ele>650</ele><name>鹅鹅鹅
        </name></wpt>
  <wpt lat="28.7373142" lon="105.5874093"><ele>660</ele><name>
        </name></wpt>
  <wpt lat="28.7383151" lon="105.5858143"><ele>661</ele><name>
        </name></wpt>
  <wpt lat="28.7354173" lon="105.5752915"><ele>651</ele><name>
        </name></wpt>
  <wpt lat="28.7309288" lon="105.5735798"><ele>580</ele><name>水泥路结束
        </name></wpt>
  <wpt lat="28.7310288" lon="105.5723569"><ele>557</ele><name>
        </name></wpt>
  <wpt lat="28.7377248" lon="105.5724848"><ele>606</ele><name>有岔路
        </name></wpt>
  <wpt lat="28.7398151" lon="105.5697454"><ele>641</ele><name>
        </name></wpt>
  <wpt lat="28.7401786" lon="105.5675402"><ele>634</ele><name>希望坡
        </name></wpt>
  <trk><name>泸州纳溪区鼓楼山环线</name>
      <trkseg>
        <trkpt lat="28.7409832" lon="105.5661816"><ele>654.96</ele><time>2025-12-27T18:10:29.000Z</time></trkpt>
        <trkpt lat="28.7410642" lon="105.5662461"><ele>654.96</ele><time>2025-12-27T18:11:11.000Z</time></trkpt>
        <trkpt lat="28.7410889" lon="105.5663417"><ele>655.6</ele><time>2025-12-27T18:11:19.000Z</time></trkpt>
        <trkpt lat="28.7410946" lon="105.5663781"><ele>656.83</ele><time>2025-12-27T18:11:25.000Z</time></trkpt>
        <trkpt lat="28.7411095" lon="105.5664744"><ele>657.64</ele><time>2025-12-27T18:12:05.000Z</time></trkpt>
        <trkpt lat="28.7411315" lon="105.5665826"><ele>657.37</ele><time>2025-12-27T18:12:21.000Z</time></trkpt>
        <trkpt lat="28.7411593" lon="105.566686"><ele>656.08</ele><time>2025-12-27T18:12:37.000Z</time></trkpt>
        <trkpt lat="28.7412076" lon="105.5667912"><ele>653.86</ele><time>2025-12-27T18:12:49.000Z</time></trkpt>
        <trkpt lat="28.7412645" lon="105.5668736"><ele>651.95</ele><time>2025-12-27T18:13:13.000Z</time></trkpt>
        <trkpt lat="28.7412576" lon="105.5669642"><ele>651.59</ele><time>2025-12-27T18:13:43.000Z</time></trkpt>
        <trkpt lat="28.7412115" lon="105.567051"><ele>650.25</ele><time>2025-12-27T18:13:53.000Z</time></trkpt>
        <trkpt lat="28.7412412" lon="105.5671294"><ele>650.96</ele><time>2025-12-27T18:14:13.000Z</time></trkpt>
        <trkpt lat="28.741288" lon="105.5672166"><ele>653.22</ele><time>2025-12-27T18:14:49.000Z</time></trkpt>
        <trkpt lat="28.7413374" lon="105.5673152"><ele>658.97</ele><time>2025-12-27T18:15:21.000Z</time></trkpt>
        <trkpt lat="28.741385" lon="105.5674204"><ele>663.93</ele><time>2025-12-27T18:15:43.000Z</time></trkpt>
        <trkpt lat="28.7414417" lon="105.567514"><ele>668.41</ele><time>2025-12-27T18:15:53.000Z</time></trkpt>
        <trkpt lat="28.7415149" lon="105.567585"><ele>670.83</ele><time>2025-12-27T18:16:01.000Z</time></trkpt>
        <trkpt lat="28.7416021" lon="105.5676294"><ele>674.3</ele><time>2025-12-27T18:16:13.000Z</time></trkpt>
        <trkpt lat="28.7416931" lon="105.5676609"><ele>675.47</ele><time>2025-12-27T18:16:23.000Z</time></trkpt>
        <trkpt lat="28.7417784" lon="105.5677175"><ele>675.23</ele><time>2025-12-27T18:16:33.000Z</time></trkpt>
        <trkpt lat="28.7418571" lon="105.5677811"><ele>674.35</ele><time>2025-12-27T18:16:41.000Z</time></trkpt>
        <trkpt lat="28.741895" lon="105.5677533"><ele>674.29</ele><time>2025-12-27T18:16:51.000Z</time></trkpt>
        <trkpt lat="28.7417769" lon="105.5677736"><ele>674.57</ele><time>2025-12-27T18:20:31.000Z</time></trkpt>
        <trkpt lat="28.7418432" lon="105.5678885"><ele>673.3</ele><time>2025-12-27T18:20:41.000Z</time></trkpt>
        <trkpt lat="28.7418898" lon="105.5679889"><ele>671.23</ele><time>2025-12-27T18:20:49.000Z</time></trkpt>
        <trkpt lat="28.741915" lon="105.5680948"><ele>671.46</ele><time>2025-12-27T18:20:59.000Z</time></trkpt>
        <trkpt lat="28.7418553" lon="105.5681539"><ele>674.17</ele><time>2025-12-27T18:21:21.000Z</time></trkpt>
        <trkpt lat="28.7418416" lon="105.5682404"><ele>676.6</ele><time>2025-12-27T18:22:53.000Z</time></trkpt>
        <trkpt lat="28.7418226" lon="105.568341"><ele>678.59</ele><time>2025-12-27T18:23:41.000Z</time></trkpt>
        <trkpt lat="28.741853" lon="105.5684388"><ele>682.14</ele><time>2025-12-27T18:24:27.000Z</time></trkpt>
        <trkpt lat="28.7419402" lon="105.5684894"><ele>684.55</ele><time>2025-12-27T18:24:47.000Z</time></trkpt>
        <trkpt lat="28.74204" lon="105.5685178"><ele>685.81</ele><time>2025-12-27T18:24:57.000Z</time></trkpt>
        <trkpt lat="28.7421378" lon="105.5685477"><ele>686.65</ele><time>2025-12-27T18:25:07.000Z</time></trkpt>
        <trkpt lat="28.7422419" lon="105.5685697"><ele>686.52</ele><time>2025-12-27T18:25:17.000Z</time></trkpt>
        <trkpt lat="28.7422478" lon="105.5685501"><ele>686.95</ele><time>2025-12-27T18:25:21.000Z</time></trkpt>
        <trkpt lat="28.7423107" lon="105.5685575"><ele>687.69</ele><time>2025-12-27T18:25:41.000Z</time></trkpt>
        <trkpt lat="28.742386" lon="105.5686325"><ele>687.77</ele><time>2025-12-27T18:25:51.000Z</time></trkpt>
        <trkpt lat="28.7424602" lon="105.5687325"><ele>687.49</ele><time>2025-12-27T18:26:01.000Z</time></trkpt>
        <trkpt lat="28.7425186" lon="105.5688434"><ele>688.91</ele><time>2025-12-27T18:26:11.000Z</time></trkpt>
        <trkpt lat="28.7425669" lon="105.5689509"><ele>690.6</ele><time>2025-12-27T18:26:21.000Z</time></trkpt>
        <trkpt lat="28.7426022" lon="105.5690626"><ele>692.33</ele><time>2025-12-27T18:26:31.000Z</time></trkpt>
        <trkpt lat="28.7426462" lon="105.5691662"><ele>693.36</ele><time>2025-12-27T18:26:45.000Z</time></trkpt>
        <trkpt lat="28.7426701" lon="105.5692194"><ele>693.63</ele><time>2025-12-27T18:26:49.000Z</time></trkpt>
        <trkpt lat="28.7427395" lon="105.569266"><ele>693.2</ele><time>2025-12-27T18:27:15.000Z</time></trkpt>
        <trkpt lat="28.7428094" lon="105.5693408"><ele>690.76</ele><time>2025-12-27T18:27:25.000Z</time></trkpt>
        <trkpt lat="28.7428945" lon="105.569406"><ele>688.69</ele><time>2025-12-27T18:27:41.000Z</time></trkpt>
        <trkpt lat="28.7428321" lon="105.5694323"><ele>686.83</ele><time>2025-12-27T18:27:51.000Z</time></trkpt>
        <trkpt lat="28.7427429" lon="105.5693754"><ele>684.06</ele><time>2025-12-27T18:27:59.000Z</time></trkpt>
        <trkpt lat="28.7426891" lon="105.569264"><ele>683.23</ele><time>2025-12-27T18:28:09.000Z</time></trkpt>
        <trkpt lat="28.742642" lon="105.5691449"><ele>682.98</ele><time>2025-12-27T18:28:25.000Z</time></trkpt>
        <trkpt lat="28.742578" lon="105.5690545"><ele>686.15</ele><time>2025-12-27T18:28:39.000Z</time></trkpt>
        <trkpt lat="28.7425174" lon="105.5690945"><ele>688.36</ele><time>2025-12-27T18:28:53.000Z</time></trkpt>
        <trkpt lat="28.7425846" lon="105.5691328"><ele>688.97</ele><time>2025-12-27T18:29:13.000Z</time></trkpt>
        <trkpt lat="28.742616" lon="105.5692292"><ele>691.98</ele><time>2025-12-27T18:29:17.000Z</time></trkpt>
        <trkpt lat="28.7426286" lon="105.5693075"><ele>694.63</ele><time>2025-12-27T18:29:23.000Z</time></trkpt>
        <trkpt lat="28.7426299" lon="105.5694141"><ele>696.96</ele><time>2025-12-27T18:29:35.000Z</time></trkpt>
        <trkpt lat="28.7425941" lon="105.5695294"><ele>697.81</ele><time>2025-12-27T18:29:45.000Z</time></trkpt>
        <trkpt lat="28.7425278" lon="105.5696159"><ele>697.46</ele><time>2025-12-27T18:29:53.000Z</time></trkpt>
        <trkpt lat="28.7424491" lon="105.5697015"><ele>696.88</ele><time>2025-12-27T18:30:01.000Z</time></trkpt>
        <trkpt lat="28.7423625" lon="105.5697729"><ele>696.15</ele><time>2025-12-27T18:30:09.000Z</time></trkpt>
        <trkpt lat="28.7423562" lon="105.5698814"><ele>695.84</ele><time>2025-12-27T18:30:19.000Z</time></trkpt>
        <trkpt lat="28.7423457" lon="105.5700046"><ele>697.4</ele><time>2025-12-27T18:30:29.000Z</time></trkpt>
        <trkpt lat="28.7423699" lon="105.5701275"><ele>698.15</ele><time>2025-12-27T18:30:41.000Z</time></trkpt>
        <trkpt lat="28.7424479" lon="105.5702143"><ele>696.05</ele><time>2025-12-27T18:30:51.000Z</time></trkpt>
        <trkpt lat="28.7425282" lon="105.5702932"><ele>694.13</ele><time>2025-12-27T18:31:01.000Z</time></trkpt>
        <trkpt lat="28.7426033" lon="105.5703647"><ele>693.65</ele><time>2025-12-27T18:31:11.000Z</time></trkpt>
        <trkpt lat="28.7426875" lon="105.5704304"><ele>693.24</ele><time>2025-12-27T18:31:21.000Z</time></trkpt>
        <trkpt lat="28.7427733" lon="105.570489"><ele>694.43</ele><time>2025-12-27T18:31:31.000Z</time></trkpt>
        <trkpt lat="28.7428232" lon="105.5705738"><ele>694.97</ele><time>2025-12-27T18:32:45.000Z</time></trkpt>
        <trkpt lat="28.7429222" lon="105.5705449"><ele>692.93</ele><time>2025-12-27T18:32:51.000Z</time></trkpt>
        <trkpt lat="28.7430083" lon="105.5704924"><ele>693.44</ele><time>2025-12-27T18:33:03.000Z</time></trkpt>
        <trkpt lat="28.7430608" lon="105.5704086"><ele>692.89</ele><time>2025-12-27T18:33:13.000Z</time></trkpt>
        <trkpt lat="28.7431323" lon="105.5703464"><ele>694.96</ele><time>2025-12-27T18:33:27.000Z</time></trkpt>
        <trkpt lat="28.7432015" lon="105.5702721"><ele>696.77</ele><time>2025-12-27T18:33:43.000Z</time></trkpt>
        <trkpt lat="28.7432709" lon="105.5702034"><ele>698.37</ele><time>2025-12-27T18:33:57.000Z</time></trkpt>
        <trkpt lat="28.743337" lon="105.5701176"><ele>699.2</ele><time>2025-12-27T18:34:07.000Z</time></trkpt>
        <trkpt lat="28.7433818" lon="105.5700217"><ele>697.92</ele><time>2025-12-27T18:34:17.000Z</time></trkpt>
        <trkpt lat="28.7434214" lon="105.5699237"><ele>697.08</ele><time>2025-12-27T18:34:25.000Z</time></trkpt>
        <trkpt lat="28.743469" lon="105.5698192"><ele>694.98</ele><time>2025-12-27T18:34:33.000Z</time></trkpt>
        <trkpt lat="28.7435337" lon="105.5697322"><ele>693.05</ele><time>2025-12-27T18:34:43.000Z</time></trkpt>
        <trkpt lat="28.7436244" lon="105.5697188"><ele>692.29</ele><time>2025-12-27T18:34:55.000Z</time></trkpt>
        <trkpt lat="28.7436808" lon="105.5697038"><ele>691.53</ele><time>2025-12-27T18:35:05.000Z</time></trkpt>
        <trkpt lat="28.7437502" lon="105.5696407"><ele>690.23</ele><time>2025-12-27T18:37:45.000Z</time></trkpt>
        <trkpt lat="28.7438444" lon="105.5696282"><ele>685.86</ele><time>2025-12-27T18:38:14.000Z</time></trkpt>
        <trkpt lat="28.7438939" lon="105.5695401"><ele>681.75</ele><time>2025-12-27T18:43:08.000Z</time></trkpt>
        <trkpt lat="28.7439138" lon="105.5694605"><ele>674.61</ele><time>2025-12-27T18:43:30.000Z</time></trkpt>
        <trkpt lat="28.7439857" lon="105.5694045"><ele>670.18</ele><time>2025-12-27T18:44:14.000Z</time></trkpt>
        <trkpt lat="28.7439599" lon="105.5694646"><ele>663.45</ele><time>2025-12-27T18:44:40.000Z</time></trkpt>
        <trkpt lat="28.7438568" lon="105.569565"><ele>659.36</ele><time>2025-12-27T18:47:52.000Z</time></trkpt>
        <trkpt lat="28.7437765" lon="105.5696258"><ele>661.73</ele><time>2025-12-27T18:48:34.000Z</time></trkpt>
        <trkpt lat="28.7437676" lon="105.5697339"><ele>666.25</ele><time>2025-12-27T18:49:44.000Z</time></trkpt>
        <trkpt lat="28.7437579" lon="105.5698425"><ele>671.96</ele><time>2025-12-27T18:49:58.000Z</time></trkpt>
        <trkpt lat="28.7437692" lon="105.5699255"><ele>675.13</ele><time>2025-12-27T18:50:12.000Z</time></trkpt>
        <trkpt lat="28.7438034" lon="105.5700155"><ele>676.15</ele><time>2025-12-27T18:50:58.000Z</time></trkpt>
        <trkpt lat="28.7438879" lon="105.5700368"><ele>677.66</ele><time>2025-12-27T18:51:08.000Z</time></trkpt>
        <trkpt lat="28.7439228" lon="105.5700785"><ele>680.69</ele><time>2025-12-27T18:51:14.000Z</time></trkpt>
        <trkpt lat="28.7438908" lon="105.5701773"><ele>681.25</ele><time>2025-12-27T18:52:32.000Z</time></trkpt>
        <trkpt lat="28.7438873" lon="105.5700723"><ele>682.87</ele><time>2025-12-27T18:53:46.000Z</time></trkpt>
        <trkpt lat="28.7438008" lon="105.5700184"><ele>683.47</ele><time>2025-12-27T18:54:50.000Z</time></trkpt>
        <trkpt lat="28.7437741" lon="105.5700131"><ele>682.62</ele><time>2025-12-27T18:54:54.000Z</time></trkpt>
        <trkpt lat="28.7437055" lon="105.5700634"><ele>683.19</ele><time>2025-12-27T18:55:50.000Z</time></trkpt>
        <trkpt lat="28.7436137" lon="105.570131"><ele>682.59</ele><time>2025-12-27T18:57:24.000Z</time></trkpt>
        <trkpt lat="28.7435423" lon="105.570228"><ele>687.47</ele><time>2025-12-27T18:58:30.000Z</time></trkpt>
        <trkpt lat="28.7434873" lon="105.5702519"><ele>691.79</ele><time>2025-12-27T18:58:42.000Z</time></trkpt>
        <trkpt lat="28.7433987" lon="105.5702253"><ele>695.37</ele><time>2025-12-27T18:59:10.000Z</time></trkpt>
        <trkpt lat="28.7433087" lon="105.5702778"><ele>699.32</ele><time>2025-12-27T19:01:04.000Z</time></trkpt>
        <trkpt lat="28.7432156" lon="105.5703346"><ele>701.99</ele><time>2025-12-27T19:01:32.000Z</time></trkpt>
        <trkpt lat="28.7431776" lon="105.5703143"><ele>703.87</ele><time>2025-12-27T19:01:38.000Z</time></trkpt>
        <trkpt lat="28.7432825" lon="105.570293"><ele>704.45</ele><time>2025-12-27T19:07:02.000Z</time></trkpt>
        <trkpt lat="28.7432774" lon="105.5702994"><ele>703.48</ele><time>2025-12-27T19:07:04.000Z</time></trkpt>
        <trkpt lat="28.7431952" lon="105.5703512"><ele>703.15</ele><time>2025-12-27T19:13:16.000Z</time></trkpt>
        <trkpt lat="28.7431145" lon="105.5704197"><ele>703.68</ele><time>2025-12-27T19:13:46.000Z</time></trkpt>
        <trkpt lat="28.7430497" lon="105.570506"><ele>704.34</ele><time>2025-12-27T19:13:56.000Z</time></trkpt>
        <trkpt lat="28.7429847" lon="105.5705842"><ele>705.1</ele><time>2025-12-27T19:14:08.000Z</time></trkpt>
        <trkpt lat="28.7429109" lon="105.5706557"><ele>705.2</ele><time>2025-12-27T19:14:18.000Z</time></trkpt>
        <trkpt lat="28.7429367" lon="105.5707351"><ele>704.49</ele><time>2025-12-27T19:14:40.000Z</time></trkpt>
        <trkpt lat="28.7430031" lon="105.5708258"><ele>700.61</ele><time>2025-12-27T19:14:50.000Z</time></trkpt>
        <trkpt lat="28.7430962" lon="105.5708946"><ele>699.23</ele><time>2025-12-27T19:15:18.000Z</time></trkpt>
        <trkpt lat="28.7431474" lon="105.5710046"><ele>697.6</ele><time>2025-12-27T19:15:26.000Z</time></trkpt>
        <trkpt lat="28.7432169" lon="105.5710977"><ele>698.71</ele><time>2025-12-27T19:15:38.000Z</time></trkpt>
        <trkpt lat="28.7433317" lon="105.5711837"><ele>699.55</ele><time>2025-12-27T19:15:58.000Z</time></trkpt>
        <trkpt lat="28.7434368" lon="105.5711742"><ele>700.77</ele><time>2025-12-27T19:16:06.000Z</time></trkpt>
        <trkpt lat="28.7435411" lon="105.571154"><ele>699.54</ele><time>2025-12-27T19:16:14.000Z</time></trkpt>
        <trkpt lat="28.7436381" lon="105.571143"><ele>698.72</ele><time>2025-12-27T19:16:24.000Z</time></trkpt>
        <trkpt lat="28.7437308" lon="105.5711417"><ele>700.47</ele><time>2025-12-27T19:16:40.000Z</time></trkpt>
        <trkpt lat="28.7437998" lon="105.5712044"><ele>702.64</ele><time>2025-12-27T19:16:56.000Z</time></trkpt>
        <trkpt lat="28.743858" lon="105.5712943"><ele>705.63</ele><time>2025-12-27T19:17:08.000Z</time></trkpt>
        <trkpt lat="28.7439071" lon="105.571394"><ele>708.55</ele><time>2025-12-27T19:17:22.000Z</time></trkpt>
        <trkpt lat="28.7439214" lon="105.571433"><ele>710.18</ele><time>2025-12-27T19:17:32.000Z</time></trkpt>
        <trkpt lat="28.7438619" lon="105.5713865"><ele>710.35</ele><time>2025-12-27T19:17:50.000Z</time></trkpt>
        <trkpt lat="28.7437984" lon="105.571295"><ele>709.79</ele><time>2025-12-27T19:18:04.000Z</time></trkpt>
        <trkpt lat="28.7437626" lon="105.5712374"><ele>708.3</ele><time>2025-12-27T19:18:14.000Z</time></trkpt>
        <trkpt lat="28.7436959" lon="105.5711607"><ele>706.81</ele><time>2025-12-27T19:18:50.000Z</time></trkpt>
        <trkpt lat="28.7436062" lon="105.5711644"><ele>705.95</ele><time>2025-12-27T19:19:04.000Z</time></trkpt>
        <trkpt lat="28.7435785" lon="105.5711736"><ele>706.59</ele><time>2025-12-27T19:19:06.000Z</time></trkpt>
        <trkpt lat="28.7435972" lon="105.5712706"><ele>706.94</ele><time>2025-12-27T19:19:32.000Z</time></trkpt>
        <trkpt lat="28.7436003" lon="105.5713961"><ele>704.88</ele><time>2025-12-27T19:19:42.000Z</time></trkpt>
        <trkpt lat="28.7435665" lon="105.5715023"><ele>702.85</ele><time>2025-12-27T19:19:50.000Z</time></trkpt>
        <trkpt lat="28.7435047" lon="105.5715849"><ele>701.2</ele><time>2025-12-27T19:19:58.000Z</time></trkpt>
        <trkpt lat="28.7434161" lon="105.5716458"><ele>700.33</ele><time>2025-12-27T19:20:06.000Z</time></trkpt>
        <trkpt lat="28.7433188" lon="105.5716635"><ele>700.92</ele><time>2025-12-27T19:20:16.000Z</time></trkpt>
        <trkpt lat="28.7432279" lon="105.5716992"><ele>701.75</ele><time>2025-12-27T19:20:24.000Z</time></trkpt>
        <trkpt lat="28.7431504" lon="105.571767"><ele>702.27</ele><time>2025-12-27T19:20:32.000Z</time></trkpt>
        <trkpt lat="28.7430913" lon="105.5718536"><ele>702.42</ele><time>2025-12-27T19:20:40.000Z</time></trkpt>
        <trkpt lat="28.7430664" lon="105.5719714"><ele>701.85</ele><time>2025-12-27T19:20:46.000Z</time></trkpt>
        <trkpt lat="28.7430617" lon="105.5720987"><ele>702.48</ele><time>2025-12-27T19:20:54.000Z</time></trkpt>
        <trkpt lat="28.7430686" lon="105.5722183"><ele>701.15</ele><time>2025-12-27T19:21:00.000Z</time></trkpt>
        <trkpt lat="28.7430579" lon="105.5723339"><ele>701.89</ele><time>2025-12-27T19:21:08.000Z</time></trkpt>
        <trkpt lat="28.7430524" lon="105.572454"><ele>701.2</ele><time>2025-12-27T19:21:16.000Z</time></trkpt>
        <trkpt lat="28.7430865" lon="105.5725815"><ele>700.06</ele><time>2025-12-27T19:21:24.000Z</time></trkpt>
        <trkpt lat="28.74312" lon="105.5726665"><ele>698.67</ele><time>2025-12-27T19:21:34.000Z</time></trkpt>
        <trkpt lat="28.743165" lon="105.5727673"><ele>693.98</ele><time>2025-12-27T19:21:44.000Z</time></trkpt>
        <trkpt lat="28.7432127" lon="105.5728811"><ele>690.06</ele><time>2025-12-27T19:21:52.000Z</time></trkpt>
        <trkpt lat="28.7431992" lon="105.5729865"><ele>688.93</ele><time>2025-12-27T19:22:00.000Z</time></trkpt>
        <trkpt lat="28.743128" lon="105.5730686"><ele>689.08</ele><time>2025-12-27T19:22:08.000Z</time></trkpt>
        <trkpt lat="28.7430413" lon="105.573137"><ele>689.69</ele><time>2025-12-27T19:22:16.000Z</time></trkpt>
        <trkpt lat="28.7429625" lon="105.5732193"><ele>689.8</ele><time>2025-12-27T19:22:24.000Z</time></trkpt>
        <trkpt lat="28.7428725" lon="105.5732532"><ele>690.91</ele><time>2025-12-27T19:22:30.000Z</time></trkpt>
        <trkpt lat="28.7427792" lon="105.5732471"><ele>690.24</ele><time>2025-12-27T19:22:34.000Z</time></trkpt>
        <trkpt lat="28.742702" lon="105.5733262"><ele>690.35</ele><time>2025-12-27T19:22:40.000Z</time></trkpt>
        <trkpt lat="28.7426163" lon="105.5733344"><ele>691.1</ele><time>2025-12-27T19:22:48.000Z</time></trkpt>
        <trkpt lat="28.7426077" lon="105.5733028"><ele>692.01</ele><time>2025-12-27T19:22:54.000Z</time></trkpt>
        <trkpt lat="28.7426258" lon="105.5733896"><ele>691.68</ele><time>2025-12-27T19:25:12.000Z</time></trkpt>
        <trkpt lat="28.7425383" lon="105.5733393"><ele>691.3</ele><time>2025-12-27T19:26:10.000Z</time></trkpt>
        <trkpt lat="28.7425031" lon="105.5733086"><ele>692.08</ele><time>2025-12-27T19:26:18.000Z</time></trkpt>
        <trkpt lat="28.7425656" lon="105.5732123"><ele>691.73</ele><time>2025-12-27T19:29:30.000Z</time></trkpt>
        <trkpt lat="28.7424956" lon="105.5731419"><ele>690.95</ele><time>2025-12-27T19:29:42.000Z</time></trkpt>
        <trkpt lat="28.7424852" lon="105.5730409"><ele>692.11</ele><time>2025-12-27T19:29:54.000Z</time></trkpt>
        <trkpt lat="28.7424209" lon="105.5730561"><ele>692.24</ele><time>2025-12-27T19:30:04.000Z</time></trkpt>
        <trkpt lat="28.7423522" lon="105.5731341"><ele>691.93</ele><time>2025-12-27T19:30:14.000Z</time></trkpt>
        <trkpt lat="28.7423051" lon="105.5732445"><ele>691.62</ele><time>2025-12-27T19:30:24.000Z</time></trkpt>
        <trkpt lat="28.7422485" lon="105.5733499"><ele>691.05</ele><time>2025-12-27T19:30:32.000Z</time></trkpt>
        <trkpt lat="28.742196" lon="105.5734525"><ele>690.34</ele><time>2025-12-27T19:30:40.000Z</time></trkpt>
        <trkpt lat="28.7421414" lon="105.5735461"><ele>689.4</ele><time>2025-12-27T19:30:48.000Z</time></trkpt>
        <trkpt lat="28.742099" lon="105.5736537"><ele>688.81</ele><time>2025-12-27T19:31:00.000Z</time></trkpt>
        <trkpt lat="28.7421244" lon="105.5737057"><ele>687.37</ele><time>2025-12-27T19:31:08.000Z</time></trkpt>
        <trkpt lat="28.7421865" lon="105.5736469"><ele>686.08</ele><time>2025-12-27T19:31:28.000Z</time></trkpt>
        <trkpt lat="28.7421564" lon="105.5736714"><ele>682.78</ele><time>2025-12-27T19:32:02.000Z</time></trkpt>
        <trkpt lat="28.742136" lon="105.5736991"><ele>684.79</ele><time>2025-12-27T19:32:06.000Z</time></trkpt>
        <trkpt lat="28.7421343" lon="105.5736299"><ele>686.68</ele><time>2025-12-27T19:32:46.000Z</time></trkpt>
        <trkpt lat="28.7421343" lon="105.5736299"><ele>686.68</ele><time>2025-12-27T19:38:10.000Z</time></trkpt>
      </trkseg>
      <trkseg>
        <trkpt lat="28.7416291" lon="105.5738315"><ele>689.15</ele><time>2025-12-27T19:52:15.000Z</time></trkpt>
        <trkpt lat="28.7416291" lon="105.5738315"><ele>689.15</ele><time>2025-12-27T19:52:19.000Z</time></trkpt>
        <trkpt lat="28.74171" lon="105.5738437"><ele>688.08</ele><time>2025-12-27T19:52:22.000Z</time></trkpt>
        <trkpt lat="28.741642" lon="105.5738838"><ele>682.36</ele><time>2025-12-27T19:52:36.000Z</time></trkpt>
        <trkpt lat="28.7415666" lon="105.573948"><ele>677.22</ele><time>2025-12-27T19:52:48.000Z</time></trkpt>
        <trkpt lat="28.7414718" lon="105.5740125"><ele>674.42</ele><time>2025-12-27T19:53:00.000Z</time></trkpt>
        <trkpt lat="28.7413646" lon="105.5740401"><ele>672.94</ele><time>2025-12-27T19:53:10.000Z</time></trkpt>
        <trkpt lat="28.7412664" lon="105.5740272"><ele>671.11</ele><time>2025-12-27T19:53:20.000Z</time></trkpt>
        <trkpt lat="28.7412301" lon="105.574041"><ele>670.33</ele><time>2025-12-27T19:53:30.000Z</time></trkpt>
        <trkpt lat="28.7411666" lon="105.5739958"><ele>670.06</ele><time>2025-12-27T19:53:54.000Z</time></trkpt>
        <trkpt lat="28.7410714" lon="105.5739726"><ele>668.78</ele><time>2025-12-27T19:54:04.000Z</time></trkpt>
        <trkpt lat="28.74098" lon="105.5739315"><ele>665.72</ele><time>2025-12-27T19:54:12.000Z</time></trkpt>
        <trkpt lat="28.7408945" lon="105.5738735"><ele>662.98</ele><time>2025-12-27T19:54:20.000Z</time></trkpt>
        <trkpt lat="28.7407839" lon="105.5738287"><ele>660.46</ele><time>2025-12-27T19:54:26.000Z</time></trkpt>
        <trkpt lat="28.7406804" lon="105.5737863"><ele>658.76</ele><time>2025-12-27T19:54:32.000Z</time></trkpt>
        <trkpt lat="28.7405721" lon="105.5737488"><ele>657.14</ele><time>2025-12-27T19:54:42.000Z</time></trkpt>
        <trkpt lat="28.7404667" lon="105.5737348"><ele>655.82</ele><time>2025-12-27T19:54:50.000Z</time></trkpt>
        <trkpt lat="28.7404324" lon="105.5737195"><ele>654.73</ele><time>2025-12-27T19:54:54.000Z</time></trkpt>
        <trkpt lat="28.7403562" lon="105.5737404"><ele>653.72</ele><time>2025-12-27T19:55:26.000Z</time></trkpt>
        <trkpt lat="28.7402687" lon="105.5737165"><ele>653.1</ele><time>2025-12-27T19:55:34.000Z</time></trkpt>
        <trkpt lat="28.7402453" lon="105.5736976"><ele>651.41</ele><time>2025-12-27T19:55:36.000Z</time></trkpt>
        <trkpt lat="28.740175" lon="105.573681"><ele>650.17</ele><time>2025-12-27T19:55:46.000Z</time></trkpt>
        <trkpt lat="28.7401552" lon="105.5736776"><ele>648.44</ele><time>2025-12-27T19:55:48.000Z</time></trkpt>
        <trkpt lat="28.7400881" lon="105.5736958"><ele>646.82</ele><time>2025-12-27T19:56:00.000Z</time></trkpt>
        <trkpt lat="28.74006" lon="105.5737349"><ele>646.41</ele><time>2025-12-27T19:56:12.000Z</time></trkpt>
        <trkpt lat="28.739961" lon="105.5737786"><ele>644.98</ele><time>2025-12-27T19:57:34.000Z</time></trkpt>
        <trkpt lat="28.7398577" lon="105.5738118"><ele>640.68</ele><time>2025-12-27T19:57:46.000Z</time></trkpt>
        <trkpt lat="28.7398013" lon="105.5739051"><ele>639.68</ele><time>2025-12-27T19:57:56.000Z</time></trkpt>
        <trkpt lat="28.7398348" lon="105.5739912"><ele>640.51</ele><time>2025-12-27T19:58:06.000Z</time></trkpt>
        <trkpt lat="28.7399197" lon="105.574056"><ele>641.93</ele><time>2025-12-27T19:58:16.000Z</time></trkpt>
        <trkpt lat="28.7399965" lon="105.5741456"><ele>640.84</ele><time>2025-12-27T19:58:26.000Z</time></trkpt>
        <trkpt lat="28.7400464" lon="105.5742468"><ele>640.66</ele><time>2025-12-27T19:58:36.000Z</time></trkpt>
        <trkpt lat="28.7401045" lon="105.5743397"><ele>641.26</ele><time>2025-12-27T19:58:46.000Z</time></trkpt>
        <trkpt lat="28.7401103" lon="105.5744508"><ele>641.84</ele><time>2025-12-27T19:58:56.000Z</time></trkpt>
        <trkpt lat="28.7400765" lon="105.5745687"><ele>641.91</ele><time>2025-12-27T19:59:06.000Z</time></trkpt>
        <trkpt lat="28.7400044" lon="105.5746644"><ele>641.19</ele><time>2025-12-27T19:59:16.000Z</time></trkpt>
        <trkpt lat="28.739915" lon="105.5747544"><ele>640.58</ele><time>2025-12-27T19:59:24.000Z</time></trkpt>
        <trkpt lat="28.7398232" lon="105.5748102"><ele>640.04</ele><time>2025-12-27T19:59:36.000Z</time></trkpt>
        <trkpt lat="28.7397316" lon="105.5748646"><ele>640.6</ele><time>2025-12-27T19:59:52.000Z</time></trkpt>
        <trkpt lat="28.7396684" lon="105.5749505"><ele>642.48</ele><time>2025-12-27T20:00:06.000Z</time></trkpt>
        <trkpt lat="28.7396137" lon="105.5750392"><ele>645.39</ele><time>2025-12-27T20:01:24.000Z</time></trkpt>
        <trkpt lat="28.7395705" lon="105.5751357"><ele>645.29</ele><time>2025-12-27T20:01:32.000Z</time></trkpt>
        <trkpt lat="28.7395182" lon="105.5752308"><ele>644.81</ele><time>2025-12-27T20:01:40.000Z</time></trkpt>
        <trkpt lat="28.7394756" lon="105.5753296"><ele>645.15</ele><time>2025-12-27T20:01:48.000Z</time></trkpt>
        <trkpt lat="28.7394361" lon="105.5754327"><ele>645.62</ele><time>2025-12-27T20:01:56.000Z</time></trkpt>
        <trkpt lat="28.7394286" lon="105.5755486"><ele>645.82</ele><time>2025-12-27T20:02:04.000Z</time></trkpt>
        <trkpt lat="28.7394211" lon="105.5756728"><ele>645.64</ele><time>2025-12-27T20:02:14.000Z</time></trkpt>
        <trkpt lat="28.7393873" lon="105.5757869"><ele>644.66</ele><time>2025-12-27T20:02:24.000Z</time></trkpt>
        <trkpt lat="28.739327" lon="105.5758884"><ele>643.45</ele><time>2025-12-27T20:02:34.000Z</time></trkpt>
        <trkpt lat="28.73925" lon="105.5759597"><ele>642.35</ele><time>2025-12-27T20:02:42.000Z</time></trkpt>
        <trkpt lat="28.7391899" lon="105.5759906"><ele>641.94</ele><time>2025-12-27T20:02:50.000Z</time></trkpt>
        <trkpt lat="28.7391016" lon="105.5760354"><ele>641.23</ele><time>2025-12-27T20:03:02.000Z</time></trkpt>
        <trkpt lat="28.7390232" lon="105.5760961"><ele>640.81</ele><time>2025-12-27T20:03:10.000Z</time></trkpt>
        <trkpt lat="28.7389198" lon="105.576158"><ele>640.39</ele><time>2025-12-27T20:03:18.000Z</time></trkpt>
        <trkpt lat="28.7388144" lon="105.576184"><ele>640.49</ele><time>2025-12-27T20:03:26.000Z</time></trkpt>
        <trkpt lat="28.7388041" lon="105.5761972"><ele>642.15</ele><time>2025-12-27T20:03:28.000Z</time></trkpt>
        <trkpt lat="28.7387328" lon="105.5761867"><ele>643.29</ele><time>2025-12-27T20:03:53.000Z</time></trkpt>
        <trkpt lat="28.7387939" lon="105.5762629"><ele>642.68</ele><time>2025-12-27T20:05:55.000Z</time></trkpt>
        <trkpt lat="28.7387249" lon="105.5763332"><ele>644.18</ele><time>2025-12-27T20:06:07.000Z</time></trkpt>
        <trkpt lat="28.7387449" lon="105.5764352"><ele>644.22</ele><time>2025-12-27T20:07:11.000Z</time></trkpt>
        <trkpt lat="28.7388574" lon="105.5764475"><ele>639.94</ele><time>2025-12-27T20:07:19.000Z</time></trkpt>
        <trkpt lat="28.7389569" lon="105.5764425"><ele>637.06</ele><time>2025-12-27T20:07:29.000Z</time></trkpt>
        <trkpt lat="28.7390453" lon="105.5764904"><ele>634.6</ele><time>2025-12-27T20:07:39.000Z</time></trkpt>
        <trkpt lat="28.739122" lon="105.5765659"><ele>633.09</ele><time>2025-12-27T20:07:51.000Z</time></trkpt>
        <trkpt lat="28.7392147" lon="105.5765862"><ele>631.64</ele><time>2025-12-27T20:08:13.000Z</time></trkpt>
        <trkpt lat="28.7392999" lon="105.5766239"><ele>631.37</ele><time>2025-12-27T20:08:21.000Z</time></trkpt>
        <trkpt lat="28.73939" lon="105.5766636"><ele>630.62</ele><time>2025-12-27T20:08:31.000Z</time></trkpt>
        <trkpt lat="28.7394832" lon="105.5767121"><ele>631.32</ele><time>2025-12-27T20:08:41.000Z</time></trkpt>
        <trkpt lat="28.7395548" lon="105.5767899"><ele>632.59</ele><time>2025-12-27T20:08:51.000Z</time></trkpt>
        <trkpt lat="28.7395996" lon="105.5769005"><ele>633.38</ele><time>2025-12-27T20:09:01.000Z</time></trkpt>
        <trkpt lat="28.7396261" lon="105.5770108"><ele>634.6</ele><time>2025-12-27T20:09:11.000Z</time></trkpt>
        <trkpt lat="28.7396497" lon="105.5770716"><ele>635.49</ele><time>2025-12-27T20:09:17.000Z</time></trkpt>
        <trkpt lat="28.7396802" lon="105.5771613"><ele>635.82</ele><time>2025-12-27T20:10:05.000Z</time></trkpt>
        <trkpt lat="28.7396532" lon="105.5772658"><ele>635.56</ele><time>2025-12-27T20:10:13.000Z</time></trkpt>
        <trkpt lat="28.7396068" lon="105.5773723"><ele>635.25</ele><time>2025-12-27T20:10:19.000Z</time></trkpt>
        <trkpt lat="28.7395975" lon="105.5774838"><ele>635.68</ele><time>2025-12-27T20:10:29.000Z</time></trkpt>
        <trkpt lat="28.7396574" lon="105.577542"><ele>635.98</ele><time>2025-12-27T20:10:39.000Z</time></trkpt>
        <trkpt lat="28.7397486" lon="105.5775349"><ele>635.4</ele><time>2025-12-27T20:11:03.000Z</time></trkpt>
        <trkpt lat="28.739852" lon="105.577532"><ele>634.43</ele><time>2025-12-27T20:11:21.000Z</time></trkpt>
        <trkpt lat="28.7399453" lon="105.5775582"><ele>635.28</ele><time>2025-12-27T20:11:33.000Z</time></trkpt>
        <trkpt lat="28.7400154" lon="105.5776339"><ele>636.26</ele><time>2025-12-27T20:11:47.000Z</time></trkpt>
        <trkpt lat="28.7400828" lon="105.577719"><ele>637.85</ele><time>2025-12-27T20:11:59.000Z</time></trkpt>
        <trkpt lat="28.7401563" lon="105.577801"><ele>640.44</ele><time>2025-12-27T20:12:23.000Z</time></trkpt>
        <trkpt lat="28.7402047" lon="105.5779079"><ele>643.2</ele><time>2025-12-27T20:12:33.000Z</time></trkpt>
        <trkpt lat="28.7402565" lon="105.5780068"><ele>644.91</ele><time>2025-12-27T20:12:41.000Z</time></trkpt>
        <trkpt lat="28.7402925" lon="105.5781062"><ele>645.68</ele><time>2025-12-27T20:12:49.000Z</time></trkpt>
        <trkpt lat="28.7403409" lon="105.5782056"><ele>645.36</ele><time>2025-12-27T20:12:57.000Z</time></trkpt>
        <trkpt lat="28.7403733" lon="105.578314"><ele>645.84</ele><time>2025-12-27T20:13:07.000Z</time></trkpt>
        <trkpt lat="28.7404101" lon="105.5784267"><ele>646.83</ele><time>2025-12-27T20:13:25.000Z</time></trkpt>
        <trkpt lat="28.7403873" lon="105.5785302"><ele>648.19</ele><time>2025-12-27T20:13:35.000Z</time></trkpt>
        <trkpt lat="28.7404642" lon="105.5785632"><ele>650.15</ele><time>2025-12-27T20:15:01.000Z</time></trkpt>
        <trkpt lat="28.7404749" lon="105.5786677"><ele>654.14</ele><time>2025-12-27T20:15:31.000Z</time></trkpt>
        <trkpt lat="28.7404763" lon="105.5787728"><ele>657.64</ele><time>2025-12-27T20:16:25.000Z</time></trkpt>
        <trkpt lat="28.7405037" lon="105.5788765"><ele>659.05</ele><time>2025-12-27T20:16:41.000Z</time></trkpt>
        <trkpt lat="28.7404951" lon="105.5789945"><ele>659.52</ele><time>2025-12-27T20:16:51.000Z</time></trkpt>
        <trkpt lat="28.7405145" lon="105.5791117"><ele>659.83</ele><time>2025-12-27T20:17:01.000Z</time></trkpt>
        <trkpt lat="28.7405379" lon="105.5792172"><ele>659.43</ele><time>2025-12-27T20:17:09.000Z</time></trkpt>
        <trkpt lat="28.7405745" lon="105.5793391"><ele>658.73</ele><time>2025-12-27T20:17:15.000Z</time></trkpt>
        <trkpt lat="28.7405693" lon="105.5794631"><ele>656.03</ele><time>2025-12-27T20:17:21.000Z</time></trkpt>
        <trkpt lat="28.7405688" lon="105.5795396"><ele>656.48</ele><time>2025-12-27T20:17:29.000Z</time></trkpt>
        <trkpt lat="28.7405108" lon="105.579614"><ele>655.93</ele><time>2025-12-27T20:17:39.000Z</time></trkpt>
        <trkpt lat="28.7404707" lon="105.5797151"><ele>655.75</ele><time>2025-12-27T20:17:51.000Z</time></trkpt>
        <trkpt lat="28.7404982" lon="105.5798121"><ele>655.55</ele><time>2025-12-27T20:18:01.000Z</time></trkpt>
        <trkpt lat="28.7405444" lon="105.5799065"><ele>656.5</ele><time>2025-12-27T20:18:13.000Z</time></trkpt>
        <trkpt lat="28.7406381" lon="105.5799399"><ele>657.36</ele><time>2025-12-27T20:18:23.000Z</time></trkpt>
        <trkpt lat="28.7407308" lon="105.5799837"><ele>655.28</ele><time>2025-12-27T20:18:33.000Z</time></trkpt>
        <trkpt lat="28.7408066" lon="105.5800614"><ele>653.81</ele><time>2025-12-27T20:18:47.000Z</time></trkpt>
        <trkpt lat="28.7408669" lon="105.5801542"><ele>653.84</ele><time>2025-12-27T20:18:57.000Z</time></trkpt>
        <trkpt lat="28.7409355" lon="105.5802257"><ele>653.51</ele><time>2025-12-27T20:19:07.000Z</time></trkpt>
        <trkpt lat="28.7410147" lon="105.5802942"><ele>653.22</ele><time>2025-12-27T20:19:17.000Z</time></trkpt>
        <trkpt lat="28.7410965" lon="105.5803698"><ele>653.92</ele><time>2025-12-27T20:19:27.000Z</time></trkpt>
        <trkpt lat="28.741154" lon="105.5804676"><ele>653.52</ele><time>2025-12-27T20:19:37.000Z</time></trkpt>
        <trkpt lat="28.7411315" lon="105.5805699"><ele>653.78</ele><time>2025-12-27T20:19:47.000Z</time></trkpt>
        <trkpt lat="28.741112" lon="105.5806863"><ele>655.3</ele><time>2025-12-27T20:19:57.000Z</time></trkpt>
        <trkpt lat="28.7411267" lon="105.5807911"><ele>656</ele><time>2025-12-27T20:20:05.000Z</time></trkpt>
        <trkpt lat="28.7411575" lon="105.5808143"><ele>655.97</ele><time>2025-12-27T20:20:09.000Z</time></trkpt>
        <trkpt lat="28.7410905" lon="105.5808612"><ele>655.97</ele><time>2025-12-27T20:23:52.000Z</time></trkpt>
        <trkpt lat="28.74102" lon="105.5809257"><ele>655.03</ele><time>2025-12-27T20:24:10.000Z</time></trkpt>
        <trkpt lat="28.7410092" lon="105.5809358"><ele>654.62</ele><time>2025-12-27T20:24:12.000Z</time></trkpt>
        <trkpt lat="28.7409952" lon="105.5810194"><ele>654.03</ele><time>2025-12-27T20:24:40.000Z</time></trkpt>
        <trkpt lat="28.7409738" lon="105.5811293"><ele>654.16</ele><time>2025-12-27T20:24:50.000Z</time></trkpt>
        <trkpt lat="28.7409392" lon="105.5812464"><ele>653.84</ele><time>2025-12-27T20:25:00.000Z</time></trkpt>
        <trkpt lat="28.7409004" lon="105.5813565"><ele>653.83</ele><time>2025-12-27T20:25:10.000Z</time></trkpt>
        <trkpt lat="28.7408263" lon="105.5814367"><ele>654.02</ele><time>2025-12-27T20:25:24.000Z</time></trkpt>
        <trkpt lat="28.7407324" lon="105.5814871"><ele>654.43</ele><time>2025-12-27T20:25:34.000Z</time></trkpt>
        <trkpt lat="28.7406354" lon="105.5814532"><ele>655.1</ele><time>2025-12-27T20:25:50.000Z</time></trkpt>
        <trkpt lat="28.7405427" lon="105.5814077"><ele>655.5</ele><time>2025-12-27T20:26:08.000Z</time></trkpt>
        <trkpt lat="28.7404929" lon="105.5814642"><ele>656.34</ele><time>2025-12-27T20:26:20.000Z</time></trkpt>
        <trkpt lat="28.7405497" lon="105.58153"><ele>657.66</ele><time>2025-12-27T20:26:36.000Z</time></trkpt>
        <trkpt lat="28.7405723" lon="105.5816301"><ele>655.63</ele><time>2025-12-27T20:26:52.000Z</time></trkpt>
        <trkpt lat="28.7405362" lon="105.5817266"><ele>657.89</ele><time>2025-12-27T20:27:28.000Z</time></trkpt>
        <trkpt lat="28.7404892" lon="105.5818331"><ele>661.84</ele><time>2025-12-27T20:27:54.000Z</time></trkpt>
        <trkpt lat="28.7404466" lon="105.5819342"><ele>664.39</ele><time>2025-12-27T20:28:14.000Z</time></trkpt>
        <trkpt lat="28.7404146" lon="105.5820369"><ele>667.7</ele><time>2025-12-27T20:29:54.000Z</time></trkpt>
        <trkpt lat="28.7403608" lon="105.5821285"><ele>670.63</ele><time>2025-12-27T20:30:08.000Z</time></trkpt>
        <trkpt lat="28.7403168" lon="105.5822333"><ele>672.57</ele><time>2025-12-27T20:30:28.000Z</time></trkpt>
        <trkpt lat="28.7403092" lon="105.5823446"><ele>674.33</ele><time>2025-12-27T20:31:08.000Z</time></trkpt>
        <trkpt lat="28.7402887" lon="105.5822503"><ele>674.2</ele><time>2025-12-27T20:32:20.000Z</time></trkpt>
        <trkpt lat="28.7402399" lon="105.5823611"><ele>671.96</ele><time>2025-12-27T20:32:34.000Z</time></trkpt>
        <trkpt lat="28.7402519" lon="105.5824644"><ele>670.21</ele><time>2025-12-27T20:32:56.000Z</time></trkpt>
        <trkpt lat="28.7402495" lon="105.5825682"><ele>669.01</ele><time>2025-12-27T20:33:04.000Z</time></trkpt>
        <trkpt lat="28.7402334" lon="105.582635"><ele>668.78</ele><time>2025-12-27T20:33:14.000Z</time></trkpt>
        <trkpt lat="28.7402334" lon="105.582635"><ele>668.78</ele><time>2025-12-27T20:36:00.000Z</time></trkpt>
      </trkseg>
      <trkseg>
        <trkpt lat="28.740266" lon="105.582718"><ele>667.67</ele><time>2025-12-27T20:39:06.000Z</time></trkpt>
        <trkpt lat="28.740266" lon="105.582718"><ele>667.67</ele><time>2025-12-27T20:39:22.000Z</time></trkpt>
        <trkpt lat="28.7402474" lon="105.5828337"><ele>667.94</ele><time>2025-12-27T20:39:30.000Z</time></trkpt>
        <trkpt lat="28.7402433" lon="105.5829544"><ele>667.99</ele><time>2025-12-27T20:39:40.000Z</time></trkpt>
        <trkpt lat="28.7402881" lon="105.583013"><ele>667.62</ele><time>2025-12-27T20:39:48.000Z</time></trkpt>
        <trkpt lat="28.7403243" lon="105.5831006"><ele>666.84</ele><time>2025-12-27T20:41:04.000Z</time></trkpt>
        <trkpt lat="28.7402477" lon="105.5831612"><ele>666.7</ele><time>2025-12-27T20:41:18.000Z</time></trkpt>
        <trkpt lat="28.7401995" lon="105.5832692"><ele>665.94</ele><time>2025-12-27T20:41:54.000Z</time></trkpt>
        <trkpt lat="28.7401701" lon="105.5833918"><ele>668.14</ele><time>2025-12-27T20:42:04.000Z</time></trkpt>
        <trkpt lat="28.740179" lon="105.5835112"><ele>669.13</ele><time>2025-12-27T20:42:22.000Z</time></trkpt>
        <trkpt lat="28.7402066" lon="105.5836239"><ele>667.14</ele><time>2025-12-27T20:42:34.000Z</time></trkpt>
        <trkpt lat="28.7402271" lon="105.5837311"><ele>664.88</ele><time>2025-12-27T20:42:44.000Z</time></trkpt>
        <trkpt lat="28.74021" lon="105.583834"><ele>662.35</ele><time>2025-12-27T20:42:54.000Z</time></trkpt>
        <trkpt lat="28.7401243" lon="105.5838886"><ele>659.72</ele><time>2025-12-27T20:43:10.000Z</time></trkpt>
        <trkpt lat="28.7401007" lon="105.5839258"><ele>657.48</ele><time>2025-12-27T20:43:16.000Z</time></trkpt>
        <trkpt lat="28.7401433" lon="105.5840013"><ele>653.14</ele><time>2025-12-27T20:43:56.000Z</time></trkpt>
        <trkpt lat="28.7401888" lon="105.584098"><ele>649.94</ele><time>2025-12-27T20:44:06.000Z</time></trkpt>
        <trkpt lat="28.7402488" lon="105.5842017"><ele>647.69</ele><time>2025-12-27T20:44:16.000Z</time></trkpt>
        <trkpt lat="28.7403065" lon="105.5843069"><ele>645.67</ele><time>2025-12-27T20:44:26.000Z</time></trkpt>
        <trkpt lat="28.7403286" lon="105.5844118"><ele>643</ele><time>2025-12-27T20:44:34.000Z</time></trkpt>
        <trkpt lat="28.7403496" lon="105.5845174"><ele>641.59</ele><time>2025-12-27T20:44:44.000Z</time></trkpt>
        <trkpt lat="28.7403478" lon="105.5846277"><ele>640.2</ele><time>2025-12-27T20:45:00.000Z</time></trkpt>
        <trkpt lat="28.7403399" lon="105.5847346"><ele>638.82</ele><time>2025-12-27T20:45:10.000Z</time></trkpt>
        <trkpt lat="28.7404075" lon="105.5847754"><ele>637.18</ele><time>2025-12-27T20:45:20.000Z</time></trkpt>
        <trkpt lat="28.7404871" lon="105.584826"><ele>638.73</ele><time>2025-12-27T20:45:30.000Z</time></trkpt>
        <trkpt lat="28.7405605" lon="105.5849062"><ele>637.58</ele><time>2025-12-27T20:45:40.000Z</time></trkpt>
        <trkpt lat="28.7406304" lon="105.5849943"><ele>636.22</ele><time>2025-12-27T20:45:52.000Z</time></trkpt>
        <trkpt lat="28.7407089" lon="105.5850743"><ele>638.06</ele><time>2025-12-27T20:46:04.000Z</time></trkpt>
        <trkpt lat="28.7407062" lon="105.585182"><ele>639.11</ele><time>2025-12-27T20:47:42.000Z</time></trkpt>
        <trkpt lat="28.7407151" lon="105.5852905"><ele>641.8</ele><time>2025-12-27T20:48:00.000Z</time></trkpt>
        <trkpt lat="28.7406875" lon="105.5853995"><ele>644.8</ele><time>2025-12-27T20:48:22.000Z</time></trkpt>
        <trkpt lat="28.7406761" lon="105.5854212"><ele>650.14</ele><time>2025-12-27T20:48:24.000Z</time></trkpt>
        <trkpt lat="28.7406956" lon="105.5855003"><ele>652.9</ele><time>2025-12-27T20:48:50.000Z</time></trkpt>
        <trkpt lat="28.7407047" lon="105.5856082"><ele>654.58</ele><time>2025-12-27T20:49:24.000Z</time></trkpt>
        <trkpt lat="28.7407176" lon="105.5857177"><ele>655.68</ele><time>2025-12-27T20:49:50.000Z</time></trkpt>
        <trkpt lat="28.7407395" lon="105.5858306"><ele>657.21</ele><time>2025-12-27T20:50:06.000Z</time></trkpt>
        <trkpt lat="28.7407375" lon="105.5859369"><ele>658.14</ele><time>2025-12-27T20:50:46.000Z</time></trkpt>
        <trkpt lat="28.7407303" lon="105.5860448"><ele>659.48</ele><time>2025-12-27T20:51:04.000Z</time></trkpt>
        <trkpt lat="28.7407364" lon="105.5861481"><ele>659.87</ele><time>2025-12-27T20:51:20.000Z</time></trkpt>
        <trkpt lat="28.740693" lon="105.5862319"><ele>661.95</ele><time>2025-12-27T20:51:36.000Z</time></trkpt>
        <trkpt lat="28.7406298" lon="105.5863061"><ele>665.46</ele><time>2025-12-27T20:51:58.000Z</time></trkpt>
        <trkpt lat="28.7405525" lon="105.5863844"><ele>668.58</ele><time>2025-12-27T20:52:12.000Z</time></trkpt>
        <trkpt lat="28.7404835" lon="105.5864693"><ele>671.35</ele><time>2025-12-27T20:52:30.000Z</time></trkpt>
        <trkpt lat="28.7403922" lon="105.5864565"><ele>673.04</ele><time>2025-12-27T20:53:20.000Z</time></trkpt>
        <trkpt lat="28.7403922" lon="105.5864565"><ele>673.04</ele><time>2025-12-27T20:54:05.000Z</time></trkpt>
      </trkseg>
      <trkseg>
        <trkpt lat="28.7404753" lon="105.5864607"><ele>675.96</ele><time>2025-12-27T21:00:54.000Z</time></trkpt>
        <trkpt lat="28.7404753" lon="105.5864607"><ele>675.96</ele><time>2025-12-27T21:01:10.000Z</time></trkpt>
        <trkpt lat="28.7404993" lon="105.5865633"><ele>679.04</ele><time>2025-12-27T21:01:22.000Z</time></trkpt>
        <trkpt lat="28.7404958" lon="105.5866711"><ele>677.97</ele><time>2025-12-27T21:01:30.000Z</time></trkpt>
        <trkpt lat="28.7404761" lon="105.5867358"><ele>676.41</ele><time>2025-12-27T21:01:38.000Z</time></trkpt>
        <trkpt lat="28.7404688" lon="105.5868279"><ele>673.61</ele><time>2025-12-27T21:01:52.000Z</time></trkpt>
        <trkpt lat="28.7404553" lon="105.586937"><ele>670.48</ele><time>2025-12-27T21:02:02.000Z</time></trkpt>
        <trkpt lat="28.7404018" lon="105.5870288"><ele>669.06</ele><time>2025-12-27T21:02:12.000Z</time></trkpt>
        <trkpt lat="28.7403236" lon="105.5871153"><ele>667.18</ele><time>2025-12-27T21:02:22.000Z</time></trkpt>
        <trkpt lat="28.7402992" lon="105.5870563"><ele>669.31</ele><time>2025-12-27T21:02:30.000Z</time></trkpt>
        <trkpt lat="28.7402917" lon="105.5870291"><ele>671.61</ele><time>2025-12-27T21:02:32.000Z</time></trkpt>
        <trkpt lat="28.7402527" lon="105.5870819"><ele>673.7</ele><time>2025-12-27T21:03:00.000Z</time></trkpt>
        <trkpt lat="28.7401863" lon="105.5871487"><ele>674.13</ele><time>2025-12-27T21:03:08.000Z</time></trkpt>
        <trkpt lat="28.7401129" lon="105.5872273"><ele>673.38</ele><time>2025-12-27T21:03:16.000Z</time></trkpt>
        <trkpt lat="28.7400263" lon="105.587276"><ele>672.73</ele><time>2025-12-27T21:03:26.000Z</time></trkpt>
        <trkpt lat="28.7399422" lon="105.5873449"><ele>674.08</ele><time>2025-12-27T21:04:00.000Z</time></trkpt>
        <trkpt lat="28.7398545" lon="105.587422"><ele>673.03</ele><time>2025-12-27T21:04:30.000Z</time></trkpt>
        <trkpt lat="28.7397678" lon="105.5874934"><ele>672.3</ele><time>2025-12-27T21:04:40.000Z</time></trkpt>
        <trkpt lat="28.739742" lon="105.5875015"><ele>671.37</ele><time>2025-12-27T21:04:42.000Z</time></trkpt>
        <trkpt lat="28.7397042" lon="105.5875626"><ele>671.02</ele><time>2025-12-27T21:04:52.000Z</time></trkpt>
        <trkpt lat="28.7396523" lon="105.5876433"><ele>670.04</ele><time>2025-12-27T21:05:00.000Z</time></trkpt>
        <trkpt lat="28.7396021" lon="105.5877023"><ele>668.93</ele><time>2025-12-27T21:05:08.000Z</time></trkpt>
        <trkpt lat="28.7395287" lon="105.58777"><ele>666.27</ele><time>2025-12-27T21:05:22.000Z</time></trkpt>
        <trkpt lat="28.7395055" lon="105.5878769"><ele>666.61</ele><time>2025-12-27T21:05:34.000Z</time></trkpt>
        <trkpt lat="28.7394659" lon="105.5879843"><ele>664.87</ele><time>2025-12-27T21:05:44.000Z</time></trkpt>
        <trkpt lat="28.7394202" lon="105.5880868"><ele>664.12</ele><time>2025-12-27T21:05:56.000Z</time></trkpt>
        <trkpt lat="28.7393675" lon="105.5882035"><ele>663.32</ele><time>2025-12-27T21:07:16.000Z</time></trkpt>
        <trkpt lat="28.7393741" lon="105.5882443"><ele>660.86</ele><time>2025-12-27T21:07:20.000Z</time></trkpt>
        <trkpt lat="28.7393227" lon="105.5883285"><ele>659.87</ele><time>2025-12-27T21:13:08.000Z</time></trkpt>
        <trkpt lat="28.7392894" lon="105.5884307"><ele>657.94</ele><time>2025-12-27T21:14:22.000Z</time></trkpt>
        <trkpt lat="28.7392514" lon="105.5885253"><ele>656.08</ele><time>2025-12-27T21:14:52.000Z</time></trkpt>
        <trkpt lat="28.7391716" lon="105.5885919"><ele>653.17</ele><time>2025-12-27T21:16:04.000Z</time></trkpt>
        <trkpt lat="28.7391622" lon="105.5886449"><ele>648.59</ele><time>2025-12-27T21:16:10.000Z</time></trkpt>
        <trkpt lat="28.7391377" lon="105.5887468"><ele>645.46</ele><time>2025-12-27T21:16:32.000Z</time></trkpt>
        <trkpt lat="28.7391015" lon="105.5888444"><ele>645.01</ele><time>2025-12-27T21:16:42.000Z</time></trkpt>
        <trkpt lat="28.7390899" lon="105.5888715"><ele>644.69</ele><time>2025-12-27T21:16:44.000Z</time></trkpt>
        <trkpt lat="28.7390622" lon="105.5889469"><ele>644.26</ele><time>2025-12-27T21:16:56.000Z</time></trkpt>
        <trkpt lat="28.7390194" lon="105.5890356"><ele>644.58</ele><time>2025-12-27T21:17:18.000Z</time></trkpt>
        <trkpt lat="28.738992" lon="105.5890695"><ele>645.19</ele><time>2025-12-27T21:17:22.000Z</time></trkpt>
        <trkpt lat="28.7389349" lon="105.5891271"><ele>646.26</ele><time>2025-12-27T21:17:38.000Z</time></trkpt>
        <trkpt lat="28.7388765" lon="105.5892118"><ele>646.63</ele><time>2025-12-27T21:18:04.000Z</time></trkpt>
        <trkpt lat="28.7388067" lon="105.5893048"><ele>647.96</ele><time>2025-12-27T21:18:16.000Z</time></trkpt>
        <trkpt lat="28.7387588" lon="105.5894036"><ele>649.61</ele><time>2025-12-27T21:18:28.000Z</time></trkpt>
        <trkpt lat="28.7387171" lon="105.5895139"><ele>651.51</ele><time>2025-12-27T21:18:38.000Z</time></trkpt>
        <trkpt lat="28.7386669" lon="105.5896158"><ele>653.09</ele><time>2025-12-27T21:18:48.000Z</time></trkpt>
        <trkpt lat="28.7386005" lon="105.5897015"><ele>653.89</ele><time>2025-12-27T21:18:58.000Z</time></trkpt>
        <trkpt lat="28.7385163" lon="105.5897597"><ele>653.8</ele><time>2025-12-27T21:19:08.000Z</time></trkpt>
        <trkpt lat="28.7384281" lon="105.5898128"><ele>654.54</ele><time>2025-12-27T21:19:20.000Z</time></trkpt>
        <trkpt lat="28.738347" lon="105.5898833"><ele>655.37</ele><time>2025-12-27T21:19:34.000Z</time></trkpt>
        <trkpt lat="28.7382742" lon="105.5899602"><ele>655.25</ele><time>2025-12-27T21:19:46.000Z</time></trkpt>
        <trkpt lat="28.7382462" lon="105.5900235"><ele>654.54</ele><time>2025-12-27T21:19:54.000Z</time></trkpt>
        <trkpt lat="28.7382011" lon="105.5901041"><ele>653.86</ele><time>2025-12-27T21:20:24.000Z</time></trkpt>
        <trkpt lat="28.7381307" lon="105.5901643"><ele>651.49</ele><time>2025-12-27T21:20:36.000Z</time></trkpt>
        <trkpt lat="28.7380584" lon="105.5902273"><ele>649.29</ele><time>2025-12-27T21:21:02.000Z</time></trkpt>
        <trkpt lat="28.7379994" lon="105.5903064"><ele>646.32</ele><time>2025-12-27T21:21:16.000Z</time></trkpt>
        <trkpt lat="28.7379352" lon="105.5903975"><ele>642.88</ele><time>2025-12-27T21:21:48.000Z</time></trkpt>
        <trkpt lat="28.7379132" lon="105.5904079"><ele>640.89</ele><time>2025-12-27T21:21:50.000Z</time></trkpt>
        <trkpt lat="28.7379373" lon="105.5904991"><ele>639.54</ele><time>2025-12-27T21:28:53.000Z</time></trkpt>
        <trkpt lat="28.7378985" lon="105.5906063"><ele>637.13</ele><time>2025-12-27T21:31:00.000Z</time></trkpt>
        <trkpt lat="28.7378614" lon="105.590704"><ele>635.04</ele><time>2025-12-27T21:31:48.000Z</time></trkpt>
        <trkpt lat="28.7378305" lon="105.5908108"><ele>634.47</ele><time>2025-12-27T21:32:34.000Z</time></trkpt>
        <trkpt lat="28.7378374" lon="105.5909229"><ele>635.7</ele><time>2025-12-27T21:32:48.000Z</time></trkpt>
        <trkpt lat="28.7377896" lon="105.5910047"><ele>637.69</ele><time>2025-12-27T21:33:04.000Z</time></trkpt>
        <trkpt lat="28.7377362" lon="105.5910872"><ele>640.47</ele><time>2025-12-27T21:33:42.000Z</time></trkpt>
        <trkpt lat="28.7377599" lon="105.5911767"><ele>640.64</ele><time>2025-12-27T21:34:00.000Z</time></trkpt>
        <trkpt lat="28.7378316" lon="105.5912687"><ele>640.32</ele><time>2025-12-27T21:35:06.000Z</time></trkpt>
        <trkpt lat="28.7377849" lon="105.591366"><ele>642.16</ele><time>2025-12-27T21:35:18.000Z</time></trkpt>
        <trkpt lat="28.7377099" lon="105.5914419"><ele>644.18</ele><time>2025-12-27T21:35:32.000Z</time></trkpt>
        <trkpt lat="28.7376238" lon="105.591507"><ele>645.65</ele><time>2025-12-27T21:35:46.000Z</time></trkpt>
        <trkpt lat="28.7375635" lon="105.591603"><ele>646.24</ele><time>2025-12-27T21:36:08.000Z</time></trkpt>
        <trkpt lat="28.7375421" lon="105.5917116"><ele>647.16</ele><time>2025-12-27T21:36:20.000Z</time></trkpt>
        <trkpt lat="28.7375406" lon="105.5918365"><ele>647.59</ele><time>2025-12-27T21:36:32.000Z</time></trkpt>
        <trkpt lat="28.7375365" lon="105.5919486"><ele>648.03</ele><time>2025-12-27T21:36:42.000Z</time></trkpt>
        <trkpt lat="28.7375078" lon="105.5920543"><ele>648.79</ele><time>2025-12-27T21:36:58.000Z</time></trkpt>
        <trkpt lat="28.7374547" lon="105.5921395"><ele>649.49</ele><time>2025-12-27T21:37:08.000Z</time></trkpt>
        <trkpt lat="28.7374222" lon="105.5921697"><ele>650.22</ele><time>2025-12-27T21:37:12.000Z</time></trkpt>
        <trkpt lat="28.737355" lon="105.5921212"><ele>651.31</ele><time>2025-12-27T21:37:22.000Z</time></trkpt>
        <trkpt lat="28.7373193" lon="105.5920779"><ele>655.93</ele><time>2025-12-27T21:37:26.000Z</time></trkpt>
        <trkpt lat="28.737286" lon="105.5921427"><ele>658.18</ele><time>2025-12-27T21:38:11.000Z</time></trkpt>
        <trkpt lat="28.7372085" lon="105.5922123"><ele>658.82</ele><time>2025-12-27T21:38:23.000Z</time></trkpt>
        <trkpt lat="28.7371274" lon="105.5921791"><ele>658.84</ele><time>2025-12-27T21:38:39.000Z</time></trkpt>
        <trkpt lat="28.7370737" lon="105.5922385"><ele>655.14</ele><time>2025-12-27T21:38:45.000Z</time></trkpt>
        <trkpt lat="28.7370512" lon="105.5923389"><ele>651.97</ele><time>2025-12-27T21:38:51.000Z</time></trkpt>
        <trkpt lat="28.7370529" lon="105.5924554"><ele>649.93</ele><time>2025-12-27T21:38:59.000Z</time></trkpt>
        <trkpt lat="28.7370846" lon="105.5925849"><ele>649.3</ele><time>2025-12-27T21:40:15.000Z</time></trkpt>
        <trkpt lat="28.7371903" lon="105.5926097"><ele>650.79</ele><time>2025-12-27T21:40:39.000Z</time></trkpt>
        <trkpt lat="28.737208" lon="105.5925982"><ele>651</ele><time>2025-12-27T21:40:47.000Z</time></trkpt>
        <trkpt lat="28.737129" lon="105.5925796"><ele>652.2</ele><time>2025-12-27T21:40:57.000Z</time></trkpt>
        <trkpt lat="28.7369847" lon="105.5925481"><ele>653.46</ele><time>2025-12-27T21:42:17.000Z</time></trkpt>
        <trkpt lat="28.7368901" lon="105.5925121"><ele>654.3</ele><time>2025-12-27T21:42:27.000Z</time></trkpt>
        <trkpt lat="28.7368074" lon="105.5924544"><ele>656.09</ele><time>2025-12-27T21:42:39.000Z</time></trkpt>
        <trkpt lat="28.7367104" lon="105.5924394"><ele>656.71</ele><time>2025-12-27T21:42:49.000Z</time></trkpt>
        <trkpt lat="28.736666" lon="105.5924541"><ele>656.32</ele><time>2025-12-27T21:42:53.000Z</time></trkpt>
        <trkpt lat="28.7366119" lon="105.5925291"><ele>656.78</ele><time>2025-12-27T21:43:11.000Z</time></trkpt>
        <trkpt lat="28.7365793" lon="105.5926349"><ele>656.79</ele><time>2025-12-27T21:43:21.000Z</time></trkpt>
        <trkpt lat="28.7365562" lon="105.5927442"><ele>656.59</ele><time>2025-12-27T21:43:31.000Z</time></trkpt>
        <trkpt lat="28.7364833" lon="105.5927568"><ele>656.18</ele><time>2025-12-27T21:43:59.000Z</time></trkpt>
        <trkpt lat="28.73638" lon="105.5927596"><ele>656.75</ele><time>2025-12-27T21:44:11.000Z</time></trkpt>
        <trkpt lat="28.7362789" lon="105.5927544"><ele>657.13</ele><time>2025-12-27T21:44:21.000Z</time></trkpt>
        <trkpt lat="28.7362123" lon="105.5926857"><ele>656.89</ele><time>2025-12-27T21:45:02.000Z</time></trkpt>
        <trkpt lat="28.7362206" lon="105.5925841"><ele>654.73</ele><time>2025-12-27T21:45:36.000Z</time></trkpt>
        <trkpt lat="28.7361929" lon="105.592477"><ele>651.57</ele><time>2025-12-27T21:45:50.000Z</time></trkpt>
        <trkpt lat="28.7361382" lon="105.5923858"><ele>649.7</ele><time>2025-12-27T21:46:00.000Z</time></trkpt>
        <trkpt lat="28.736101" lon="105.5922841"><ele>648.8</ele><time>2025-12-27T21:46:12.000Z</time></trkpt>
        <trkpt lat="28.7361204" lon="105.5921813"><ele>649.05</ele><time>2025-12-27T21:46:22.000Z</time></trkpt>
        <trkpt lat="28.7361635" lon="105.5920765"><ele>649.05</ele><time>2025-12-27T21:46:34.000Z</time></trkpt>
        <trkpt lat="28.7362163" lon="105.5919715"><ele>648.76</ele><time>2025-12-27T21:46:48.000Z</time></trkpt>
        <trkpt lat="28.7362706" lon="105.5918765"><ele>648.65</ele><time>2025-12-27T21:46:58.000Z</time></trkpt>
        <trkpt lat="28.7363197" lon="105.5918314"><ele>647.68</ele><time>2025-12-27T21:47:08.000Z</time></trkpt>
        <trkpt lat="28.7363783" lon="105.5917597"><ele>646.61</ele><time>2025-12-27T21:47:22.000Z</time></trkpt>
        <trkpt lat="28.7363883" lon="105.5916957"><ele>645.88</ele><time>2025-12-27T21:47:28.000Z</time></trkpt>
        <trkpt lat="28.7363883" lon="105.5916957"><ele>645.88</ele><time>2025-12-27T21:55:47.000Z</time></trkpt>
      </trkseg>
      <trkseg>
        <trkpt lat="28.7363805" lon="105.5915772"><ele>645.91</ele><time>2025-12-27T22:01:04.000Z</time></trkpt>
        <trkpt lat="28.7363805" lon="105.5915772"><ele>645.91</ele><time>2025-12-27T22:01:07.000Z</time></trkpt>
        <trkpt lat="28.7363981" lon="105.5915141"><ele>644.3</ele><time>2025-12-27T22:01:11.000Z</time></trkpt>
        <trkpt lat="28.7364395" lon="105.5914204"><ele>648.23</ele><time>2025-12-27T22:01:46.000Z</time></trkpt>
        <trkpt lat="28.7364449" lon="105.5913139"><ele>650.91</ele><time>2025-12-27T22:01:56.000Z</time></trkpt>
        <trkpt lat="28.7364352" lon="105.5912042"><ele>652.36</ele><time>2025-12-27T22:02:08.000Z</time></trkpt>
        <trkpt lat="28.736446" lon="105.5910902"><ele>651.91</ele><time>2025-12-27T22:02:18.000Z</time></trkpt>
        <trkpt lat="28.7364924" lon="105.590981"><ele>651.3</ele><time>2025-12-27T22:02:28.000Z</time></trkpt>
        <trkpt lat="28.7365181" lon="105.5908679"><ele>650.42</ele><time>2025-12-27T22:02:44.000Z</time></trkpt>
        <trkpt lat="28.7365482" lon="105.5907649"><ele>650.19</ele><time>2025-12-27T22:03:08.000Z</time></trkpt>
        <trkpt lat="28.7365932" lon="105.5906743"><ele>651.45</ele><time>2025-12-27T22:03:18.000Z</time></trkpt>
        <trkpt lat="28.7366527" lon="105.5905802"><ele>651.76</ele><time>2025-12-27T22:03:30.000Z</time></trkpt>
        <trkpt lat="28.7367186" lon="105.5905017"><ele>651.73</ele><time>2025-12-27T22:03:40.000Z</time></trkpt>
        <trkpt lat="28.7367857" lon="105.5904192"><ele>651.11</ele><time>2025-12-27T22:03:52.000Z</time></trkpt>
        <trkpt lat="28.736851" lon="105.5903383"><ele>650.36</ele><time>2025-12-27T22:04:08.000Z</time></trkpt>
        <trkpt lat="28.7369152" lon="105.5902508"><ele>649.38</ele><time>2025-12-27T22:04:22.000Z</time></trkpt>
        <trkpt lat="28.7369837" lon="105.5901617"><ele>648.48</ele><time>2025-12-27T22:04:34.000Z</time></trkpt>
        <trkpt lat="28.7370508" lon="105.5900764"><ele>646.67</ele><time>2025-12-27T22:04:44.000Z</time></trkpt>
        <trkpt lat="28.7371121" lon="105.5899852"><ele>644.54</ele><time>2025-12-27T22:04:56.000Z</time></trkpt>
        <trkpt lat="28.7371887" lon="105.5899114"><ele>643.42</ele><time>2025-12-27T22:05:16.000Z</time></trkpt>
        <trkpt lat="28.7372675" lon="105.5898555"><ele>641.29</ele><time>2025-12-27T22:05:24.000Z</time></trkpt>
        <trkpt lat="28.7373464" lon="105.5897844"><ele>639.83</ele><time>2025-12-27T22:05:34.000Z</time></trkpt>
        <trkpt lat="28.7374222" lon="105.5897178"><ele>638.79</ele><time>2025-12-27T22:05:42.000Z</time></trkpt>
        <trkpt lat="28.7375" lon="105.5896463"><ele>638.71</ele><time>2025-12-27T22:05:52.000Z</time></trkpt>
        <trkpt lat="28.7374757" lon="105.5895288"><ele>639.52</ele><time>2025-12-27T22:07:26.000Z</time></trkpt>
        <trkpt lat="28.7373866" lon="105.5894643"><ele>640.82</ele><time>2025-12-27T22:07:34.000Z</time></trkpt>
        <trkpt lat="28.7373586" lon="105.5893531"><ele>643.02</ele><time>2025-12-27T22:07:44.000Z</time></trkpt>
        <trkpt lat="28.7373602" lon="105.5892412"><ele>645.6</ele><time>2025-12-27T22:07:56.000Z</time></trkpt>
        <trkpt lat="28.737363" lon="105.5891179"><ele>647.61</ele><time>2025-12-27T22:08:20.000Z</time></trkpt>
        <trkpt lat="28.7374006" lon="105.5889982"><ele>647.35</ele><time>2025-12-27T22:08:28.000Z</time></trkpt>
        <trkpt lat="28.7374524" lon="105.5888878"><ele>647.32</ele><time>2025-12-27T22:08:40.000Z</time></trkpt>
        <trkpt lat="28.737531" lon="105.5888044"><ele>648.35</ele><time>2025-12-27T22:08:52.000Z</time></trkpt>
        <trkpt lat="28.7375973" lon="105.5887211"><ele>649.28</ele><time>2025-12-27T22:08:56.000Z</time></trkpt>
        <trkpt lat="28.7376155" lon="105.5886968"><ele>649.27</ele><time>2025-12-27T22:08:58.000Z</time></trkpt>
        <trkpt lat="28.7376498" lon="105.5886219"><ele>649.38</ele><time>2025-12-27T22:09:08.000Z</time></trkpt>
        <trkpt lat="28.7377192" lon="105.5885662"><ele>650.64</ele><time>2025-12-27T22:09:16.000Z</time></trkpt>
        <trkpt lat="28.7376968" lon="105.588531"><ele>651.27</ele><time>2025-12-27T22:09:24.000Z</time></trkpt>
        <trkpt lat="28.7376041" lon="105.5885196"><ele>651.48</ele><time>2025-12-27T22:09:48.000Z</time></trkpt>
        <trkpt lat="28.7375368" lon="105.5884454"><ele>651.67</ele><time>2025-12-27T22:09:56.000Z</time></trkpt>
        <trkpt lat="28.7375043" lon="105.5883415"><ele>651.08</ele><time>2025-12-27T22:10:04.000Z</time></trkpt>
        <trkpt lat="28.7375222" lon="105.5882994"><ele>650.68</ele><time>2025-12-27T22:10:12.000Z</time></trkpt>
        <trkpt lat="28.7375166" lon="105.5882086"><ele>649.93</ele><time>2025-12-27T22:10:22.000Z</time></trkpt>
        <trkpt lat="28.7374825" lon="105.5881048"><ele>649.45</ele><time>2025-12-27T22:10:30.000Z</time></trkpt>
        <trkpt lat="28.7374921" lon="105.5879839"><ele>649.64</ele><time>2025-12-27T22:10:40.000Z</time></trkpt>
        <trkpt lat="28.7374686" lon="105.5879103"><ele>650.22</ele><time>2025-12-27T22:10:48.000Z</time></trkpt>
        <trkpt lat="28.7374362" lon="105.5878094"><ele>648.81</ele><time>2025-12-27T22:11:50.000Z</time></trkpt>
        <trkpt lat="28.7373889" lon="105.5877159"><ele>649.89</ele><time>2025-12-27T22:12:02.000Z</time></trkpt>
        <trkpt lat="28.7373526" lon="105.5876178"><ele>651.29</ele><time>2025-12-27T22:12:22.000Z</time></trkpt>
        <trkpt lat="28.7373318" lon="105.5875128"><ele>651.93</ele><time>2025-12-27T22:12:34.000Z</time></trkpt>
        <trkpt lat="28.7373142" lon="105.5874093"><ele>653.2</ele><time>2025-12-27T22:12:42.000Z</time></trkpt>
        <trkpt lat="28.7373118" lon="105.5872977"><ele>656.23</ele><time>2025-12-27T22:12:52.000Z</time></trkpt>
        <trkpt lat="28.7373374" lon="105.5871937"><ele>657.39</ele><time>2025-12-27T22:13:00.000Z</time></trkpt>
        <trkpt lat="28.7374063" lon="105.5871009"><ele>658.06</ele><time>2025-12-27T22:13:10.000Z</time></trkpt>
        <trkpt lat="28.7374694" lon="105.5870025"><ele>658.27</ele><time>2025-12-27T22:13:20.000Z</time></trkpt>
        <trkpt lat="28.7375356" lon="105.5869033"><ele>658.71</ele><time>2025-12-27T22:13:30.000Z</time></trkpt>
        <trkpt lat="28.7376254" lon="105.5868401"><ele>658.21</ele><time>2025-12-27T22:13:40.000Z</time></trkpt>
        <trkpt lat="28.7377189" lon="105.5868023"><ele>656.72</ele><time>2025-12-27T22:13:48.000Z</time></trkpt>
        <trkpt lat="28.7378002" lon="105.5867536"><ele>657.07</ele><time>2025-12-27T22:13:58.000Z</time></trkpt>
        <trkpt lat="28.7378705" lon="105.5866648"><ele>658.64</ele><time>2025-12-27T22:14:16.000Z</time></trkpt>
        <trkpt lat="28.7379516" lon="105.5865961"><ele>658.85</ele><time>2025-12-27T22:14:30.000Z</time></trkpt>
        <trkpt lat="28.7379763" lon="105.5865778"><ele>659.62</ele><time>2025-12-27T22:14:32.000Z</time></trkpt>
        <trkpt lat="28.7380344" lon="105.5865316"><ele>660.51</ele><time>2025-12-27T22:14:48.000Z</time></trkpt>
        <trkpt lat="28.7380518" lon="105.5864344"><ele>662.13</ele><time>2025-12-27T22:14:56.000Z</time></trkpt>
        <trkpt lat="28.7380298" lon="105.5863093"><ele>663.62</ele><time>2025-12-27T22:15:04.000Z</time></trkpt>
        <trkpt lat="28.738033" lon="105.5862605"><ele>665.35</ele><time>2025-12-27T22:15:08.000Z</time></trkpt>
        <trkpt lat="28.7381014" lon="105.5862207"><ele>666.38</ele><time>2025-12-27T22:15:20.000Z</time></trkpt>
        <trkpt lat="28.7381688" lon="105.5861494"><ele>665.06</ele><time>2025-12-27T22:15:32.000Z</time></trkpt>
        <trkpt lat="28.738218" lon="105.586051"><ele>663.94</ele><time>2025-12-27T22:15:50.000Z</time></trkpt>
        <trkpt lat="28.7381951" lon="105.5859498"><ele>662.71</ele><time>2025-12-27T22:16:02.000Z</time></trkpt>
        <trkpt lat="28.7382387" lon="105.5858674"><ele>662.31</ele><time>2025-12-27T22:16:12.000Z</time></trkpt>
        <trkpt lat="28.7383151" lon="105.5858143"><ele>662.01</ele><time>2025-12-27T22:16:22.000Z</time></trkpt>
        <trkpt lat="28.7383448" lon="105.5857239"><ele>661.55</ele><time>2025-12-27T22:17:56.000Z</time></trkpt>
        <trkpt lat="28.7383668" lon="105.5855927"><ele>661.64</ele><time>2025-12-27T22:18:10.000Z</time></trkpt>
        <trkpt lat="28.7383081" lon="105.5855093"><ele>662.3</ele><time>2025-12-27T22:18:24.000Z</time></trkpt>
        <trkpt lat="28.7382233" lon="105.585437"><ele>662.99</ele><time>2025-12-27T22:18:36.000Z</time></trkpt>
        <trkpt lat="28.7381498" lon="105.5853621"><ele>663.89</ele><time>2025-12-27T22:18:46.000Z</time></trkpt>
        <trkpt lat="28.7380904" lon="105.5852685"><ele>664.67</ele><time>2025-12-27T22:18:58.000Z</time></trkpt>
        <trkpt lat="28.738054" lon="105.585166"><ele>664.95</ele><time>2025-12-27T22:19:08.000Z</time></trkpt>
        <trkpt lat="28.738037" lon="105.5850757"><ele>664.09</ele><time>2025-12-27T22:19:24.000Z</time></trkpt>
        <trkpt lat="28.7380366" lon="105.5849703"><ele>662.25</ele><time>2025-12-27T22:19:46.000Z</time></trkpt>
        <trkpt lat="28.7380523" lon="105.584862"><ele>660.03</ele><time>2025-12-27T22:19:58.000Z</time></trkpt>
        <trkpt lat="28.7380661" lon="105.5847559"><ele>659.12</ele><time>2025-12-27T22:20:10.000Z</time></trkpt>
        <trkpt lat="28.7380658" lon="105.5846411"><ele>658.12</ele><time>2025-12-27T22:20:22.000Z</time></trkpt>
        <trkpt lat="28.7380348" lon="105.5845398"><ele>657.24</ele><time>2025-12-27T22:20:33.000Z</time></trkpt>
        <trkpt lat="28.7379883" lon="105.5844468"><ele>657.27</ele><time>2025-12-27T22:20:43.000Z</time></trkpt>
        <trkpt lat="28.7379234" lon="105.5843505"><ele>657.03</ele><time>2025-12-27T22:20:53.000Z</time></trkpt>
        <trkpt lat="28.7378599" lon="105.5842513"><ele>656.9</ele><time>2025-12-27T22:21:03.000Z</time></trkpt>
        <trkpt lat="28.7377832" lon="105.5841852"><ele>658.07</ele><time>2025-12-27T22:21:11.000Z</time></trkpt>
        <trkpt lat="28.7377534" lon="105.5841732"><ele>658.97</ele><time>2025-12-27T22:21:13.000Z</time></trkpt>
        <trkpt lat="28.7376995" lon="105.5841252"><ele>659.04</ele><time>2025-12-27T22:22:09.000Z</time></trkpt>
        <trkpt lat="28.7376626" lon="105.5840369"><ele>658.24</ele><time>2025-12-27T22:22:17.000Z</time></trkpt>
        <trkpt lat="28.7376721" lon="105.5839333"><ele>658.64</ele><time>2025-12-27T22:22:25.000Z</time></trkpt>
        <trkpt lat="28.737695" lon="105.58382"><ele>660.46</ele><time>2025-12-27T22:22:35.000Z</time></trkpt>
        <trkpt lat="28.7376762" lon="105.5837098"><ele>662.26</ele><time>2025-12-27T22:22:45.000Z</time></trkpt>
        <trkpt lat="28.7376415" lon="105.5836043"><ele>664.2</ele><time>2025-12-27T22:22:55.000Z</time></trkpt>
        <trkpt lat="28.7375921" lon="105.5835052"><ele>665.01</ele><time>2025-12-27T22:23:23.000Z</time></trkpt>
        <trkpt lat="28.7376165" lon="105.5833856"><ele>665.35</ele><time>2025-12-27T22:23:49.000Z</time></trkpt>
        <trkpt lat="28.737629" lon="105.5833517"><ele>665.7</ele><time>2025-12-27T22:23:59.000Z</time></trkpt>
        <trkpt lat="28.7375849" lon="105.5832863"><ele>665</ele><time>2025-12-27T22:24:11.000Z</time></trkpt>
        <trkpt lat="28.7375255" lon="105.5831973"><ele>665.18</ele><time>2025-12-27T22:24:21.000Z</time></trkpt>
        <trkpt lat="28.7374762" lon="105.5830977"><ele>666.59</ele><time>2025-12-27T22:24:33.000Z</time></trkpt>
        <trkpt lat="28.7373936" lon="105.5830448"><ele>667.4</ele><time>2025-12-27T22:24:47.000Z</time></trkpt>
        <trkpt lat="28.7373958" lon="105.5829613"><ele>667.78</ele><time>2025-12-27T22:24:53.000Z</time></trkpt>
        <trkpt lat="28.7374169" lon="105.5828606"><ele>668.9</ele><time>2025-12-27T22:25:09.000Z</time></trkpt>
        <trkpt lat="28.7374482" lon="105.582754"><ele>669.87</ele><time>2025-12-27T22:25:19.000Z</time></trkpt>
        <trkpt lat="28.7374667" lon="105.5826398"><ele>670.41</ele><time>2025-12-27T22:25:31.000Z</time></trkpt>
        <trkpt lat="28.7375289" lon="105.5825536"><ele>670.93</ele><time>2025-12-27T22:25:43.000Z</time></trkpt>
        <trkpt lat="28.7375993" lon="105.582472"><ele>670.12</ele><time>2025-12-27T22:26:03.000Z</time></trkpt>
        <trkpt lat="28.7376653" lon="105.5823936"><ele>669.42</ele><time>2025-12-27T22:26:15.000Z</time></trkpt>
        <trkpt lat="28.7376508" lon="105.582305"><ele>667.87</ele><time>2025-12-27T22:26:31.000Z</time></trkpt>
        <trkpt lat="28.7375988" lon="105.5822063"><ele>666.77</ele><time>2025-12-27T22:26:57.000Z</time></trkpt>
        <trkpt lat="28.7375455" lon="105.5821069"><ele>666.28</ele><time>2025-12-27T22:27:09.000Z</time></trkpt>
        <trkpt lat="28.7375139" lon="105.5819924"><ele>666.82</ele><time>2025-12-27T22:27:21.000Z</time></trkpt>
        <trkpt lat="28.7374945" lon="105.5818673"><ele>667.93</ele><time>2025-12-27T22:27:31.000Z</time></trkpt>
        <trkpt lat="28.7374728" lon="105.5817367"><ele>668.28</ele><time>2025-12-27T22:27:51.000Z</time></trkpt>
        <trkpt lat="28.7374625" lon="105.5817002"><ele>668.64</ele><time>2025-12-27T22:27:55.000Z</time></trkpt>
        <trkpt lat="28.7374141" lon="105.5816189"><ele>668.59</ele><time>2025-12-27T22:28:29.000Z</time></trkpt>
        <trkpt lat="28.7373164" lon="105.5815586"><ele>667.84</ele><time>2025-12-27T22:28:33.000Z</time></trkpt>
        <trkpt lat="28.7372126" lon="105.5815651"><ele>667.29</ele><time>2025-12-27T22:28:49.000Z</time></trkpt>
        <trkpt lat="28.7371201" lon="105.5815346"><ele>667.19</ele><time>2025-12-27T22:29:25.000Z</time></trkpt>
        <trkpt lat="28.7370545" lon="105.5814638"><ele>667.8</ele><time>2025-12-27T22:29:35.000Z</time></trkpt>
        <trkpt lat="28.7370285" lon="105.5813547"><ele>669.87</ele><time>2025-12-27T22:29:45.000Z</time></trkpt>
        <trkpt lat="28.7370194" lon="105.5812352"><ele>672.4</ele><time>2025-12-27T22:29:55.000Z</time></trkpt>
        <trkpt lat="28.7370079" lon="105.5811846"><ele>675.08</ele><time>2025-12-27T22:29:59.000Z</time></trkpt>
        <trkpt lat="28.7370201" lon="105.5810926"><ele>676.4</ele><time>2025-12-27T22:30:49.000Z</time></trkpt>
        <trkpt lat="28.737057" lon="105.5809823"><ele>676.65</ele><time>2025-12-27T22:30:59.000Z</time></trkpt>
        <trkpt lat="28.7371103" lon="105.5808775"><ele>676.2</ele><time>2025-12-27T22:31:07.000Z</time></trkpt>
        <trkpt lat="28.7371541" lon="105.5807769"><ele>675.5</ele><time>2025-12-27T22:31:15.000Z</time></trkpt>
        <trkpt lat="28.7371631" lon="105.580671"><ele>674.92</ele><time>2025-12-27T22:31:25.000Z</time></trkpt>
        <trkpt lat="28.7371355" lon="105.5805593"><ele>675.55</ele><time>2025-12-27T22:31:37.000Z</time></trkpt>
        <trkpt lat="28.7371434" lon="105.5804412"><ele>676.16</ele><time>2025-12-27T22:31:47.000Z</time></trkpt>
        <trkpt lat="28.7371685" lon="105.5803258"><ele>675.6</ele><time>2025-12-27T22:31:57.000Z</time></trkpt>
        <trkpt lat="28.7371892" lon="105.5802404"><ele>674.34</ele><time>2025-12-27T22:32:05.000Z</time></trkpt>
        <trkpt lat="28.7372101" lon="105.5801318"><ele>672.57</ele><time>2025-12-27T22:32:19.000Z</time></trkpt>
        <trkpt lat="28.7372088" lon="105.5800268"><ele>671.23</ele><time>2025-12-27T22:32:29.000Z</time></trkpt>
        <trkpt lat="28.7371928" lon="105.5799599"><ele>671</ele><time>2025-12-27T22:32:37.000Z</time></trkpt>
        <trkpt lat="28.7371507" lon="105.579878"><ele>670.66</ele><time>2025-12-27T22:32:55.000Z</time></trkpt>
        <trkpt lat="28.7371024" lon="105.5797761"><ele>670.1</ele><time>2025-12-27T22:33:11.000Z</time></trkpt>
        <trkpt lat="28.7370687" lon="105.5796692"><ele>669.49</ele><time>2025-12-27T22:33:21.000Z</time></trkpt>
        <trkpt lat="28.7370456" lon="105.5795528"><ele>669.53</ele><time>2025-12-27T22:35:05.000Z</time></trkpt>
        <trkpt lat="28.7370121" lon="105.5794559"><ele>669.63</ele><time>2025-12-27T22:35:15.000Z</time></trkpt>
        <trkpt lat="28.7369976" lon="105.5793437"><ele>671.46</ele><time>2025-12-27T22:35:29.000Z</time></trkpt>
        <trkpt lat="28.7370008" lon="105.5792297"><ele>674.21</ele><time>2025-12-27T22:35:39.000Z</time></trkpt>
        <trkpt lat="28.7369885" lon="105.5791825"><ele>675.34</ele><time>2025-12-27T22:35:45.000Z</time></trkpt>
        <trkpt lat="28.736998" lon="105.5790954"><ele>675.37</ele><time>2025-12-27T22:36:59.000Z</time></trkpt>
        <trkpt lat="28.7370266" lon="105.5789933"><ele>674.09</ele><time>2025-12-27T22:37:13.000Z</time></trkpt>
        <trkpt lat="28.7370108" lon="105.5788811"><ele>674.52</ele><time>2025-12-27T22:37:39.000Z</time></trkpt>
        <trkpt lat="28.7369478" lon="105.5788048"><ele>674.59</ele><time>2025-12-27T22:37:49.000Z</time></trkpt>
        <trkpt lat="28.7368525" lon="105.5787731"><ele>675.52</ele><time>2025-12-27T22:38:09.000Z</time></trkpt>
        <trkpt lat="28.7367708" lon="105.5787117"><ele>676.36</ele><time>2025-12-27T22:38:19.000Z</time></trkpt>
        <trkpt lat="28.73672" lon="105.5786153"><ele>677.5</ele><time>2025-12-27T22:38:29.000Z</time></trkpt>
        <trkpt lat="28.7366967" lon="105.5785001"><ele>678.37</ele><time>2025-12-27T22:38:39.000Z</time></trkpt>
        <trkpt lat="28.7367118" lon="105.5783703"><ele>677.4</ele><time>2025-12-27T22:38:49.000Z</time></trkpt>
        <trkpt lat="28.7367254" lon="105.5782689"><ele>676.18</ele><time>2025-12-27T22:38:57.000Z</time></trkpt>
        <trkpt lat="28.7367632" lon="105.5781686"><ele>674.56</ele><time>2025-12-27T22:39:17.000Z</time></trkpt>
        <trkpt lat="28.7367975" lon="105.5780657"><ele>673.58</ele><time>2025-12-27T22:39:27.000Z</time></trkpt>
        <trkpt lat="28.7368242" lon="105.5779973"><ele>672.46</ele><time>2025-12-27T22:39:33.000Z</time></trkpt>
        <trkpt lat="28.736826" lon="105.5778878"><ele>671.17</ele><time>2025-12-27T22:39:49.000Z</time></trkpt>
        <trkpt lat="28.7368224" lon="105.5778016"><ele>670.05</ele><time>2025-12-27T22:40:01.000Z</time></trkpt>
        <trkpt lat="28.7367902" lon="105.5777081"><ele>669.53</ele><time>2025-12-27T22:40:41.000Z</time></trkpt>
        <trkpt lat="28.7367696" lon="105.5775981"><ele>669.09</ele><time>2025-12-27T22:40:53.000Z</time></trkpt>
        <trkpt lat="28.7367475" lon="105.5774836"><ele>669.42</ele><time>2025-12-27T22:41:07.000Z</time></trkpt>
        <trkpt lat="28.7367312" lon="105.577365"><ele>669.35</ele><time>2025-12-27T22:41:21.000Z</time></trkpt>
        <trkpt lat="28.7367197" lon="105.5772486"><ele>668.54</ele><time>2025-12-27T22:41:33.000Z</time></trkpt>
        <trkpt lat="28.7367535" lon="105.5771499"><ele>666.91</ele><time>2025-12-27T22:41:43.000Z</time></trkpt>
        <trkpt lat="28.7368333" lon="105.577077"><ele>665.31</ele><time>2025-12-27T22:41:53.000Z</time></trkpt>
        <trkpt lat="28.7368997" lon="105.5770304"><ele>664.36</ele><time>2025-12-27T22:42:01.000Z</time></trkpt>
        <trkpt lat="28.7369222" lon="105.5769383"><ele>664.01</ele><time>2025-12-27T22:42:15.000Z</time></trkpt>
        <trkpt lat="28.736914" lon="105.5768297"><ele>663.87</ele><time>2025-12-27T22:42:27.000Z</time></trkpt>
        <trkpt lat="28.7368876" lon="105.5767135"><ele>663.92</ele><time>2025-12-27T22:42:40.000Z</time></trkpt>
        <trkpt lat="28.7368621" lon="105.5766052"><ele>664.82</ele><time>2025-12-27T22:42:50.000Z</time></trkpt>
        <trkpt lat="28.7368539" lon="105.5765086"><ele>664.96</ele><time>2025-12-27T22:43:00.000Z</time></trkpt>
        <trkpt lat="28.7368626" lon="105.5764056"><ele>664.92</ele><time>2025-12-27T22:43:20.000Z</time></trkpt>
        <trkpt lat="28.7368885" lon="105.576299"><ele>665.19</ele><time>2025-12-27T22:43:34.000Z</time></trkpt>
        <trkpt lat="28.736939" lon="105.5762064"><ele>664.74</ele><time>2025-12-27T22:44:18.000Z</time></trkpt>
        <trkpt lat="28.7369953" lon="105.5761194"><ele>664.72</ele><time>2025-12-27T22:44:34.000Z</time></trkpt>
        <trkpt lat="28.737037" lon="105.5760255"><ele>664.45</ele><time>2025-12-27T22:44:52.000Z</time></trkpt>
        <trkpt lat="28.7370618" lon="105.5759206"><ele>664.77</ele><time>2025-12-27T22:45:12.000Z</time></trkpt>
        <trkpt lat="28.7370691" lon="105.5758897"><ele>664.85</ele><time>2025-12-27T22:45:24.000Z</time></trkpt>
        <trkpt lat="28.7370037" lon="105.5758642"><ele>664.96</ele><time>2025-12-27T22:46:24.000Z</time></trkpt>
        <trkpt lat="28.7369013" lon="105.5758701"><ele>665.36</ele><time>2025-12-27T22:46:38.000Z</time></trkpt>
        <trkpt lat="28.7368014" lon="105.5759139"><ele>666</ele><time>2025-12-27T22:46:50.000Z</time></trkpt>
        <trkpt lat="28.7366966" lon="105.5759681"><ele>666.8</ele><time>2025-12-27T22:47:02.000Z</time></trkpt>
        <trkpt lat="28.7365944" lon="105.576013"><ele>667.28</ele><time>2025-12-27T22:47:12.000Z</time></trkpt>
        <trkpt lat="28.7365668" lon="105.5760238"><ele>668.27</ele><time>2025-12-27T22:47:14.000Z</time></trkpt>
        <trkpt lat="28.7365062" lon="105.5760603"><ele>668.7</ele><time>2025-12-27T22:47:26.000Z</time></trkpt>
        <trkpt lat="28.7364147" lon="105.5760664"><ele>669.13</ele><time>2025-12-27T22:48:22.000Z</time></trkpt>
        <trkpt lat="28.7363089" lon="105.5760667"><ele>668.75</ele><time>2025-12-27T22:48:32.000Z</time></trkpt>
        <trkpt lat="28.7362001" lon="105.5760724"><ele>667.84</ele><time>2025-12-27T22:48:42.000Z</time></trkpt>
        <trkpt lat="28.7361326" lon="105.5760877"><ele>666.71</ele><time>2025-12-27T22:48:50.000Z</time></trkpt>
        <trkpt lat="28.7360468" lon="105.5761042"><ele>666.2</ele><time>2025-12-27T22:49:02.000Z</time></trkpt>
        <trkpt lat="28.7359496" lon="105.5761147"><ele>665.5</ele><time>2025-12-27T22:49:12.000Z</time></trkpt>
        <trkpt lat="28.7358486" lon="105.5761073"><ele>665.18</ele><time>2025-12-27T22:49:22.000Z</time></trkpt>
        <trkpt lat="28.7357676" lon="105.5760575"><ele>666.08</ele><time>2025-12-27T22:49:30.000Z</time></trkpt>
        <trkpt lat="28.7356939" lon="105.5759899"><ele>667.83</ele><time>2025-12-27T22:49:40.000Z</time></trkpt>
        <trkpt lat="28.7356651" lon="105.5759189"><ele>669.76</ele><time>2025-12-27T22:49:46.000Z</time></trkpt>
        <trkpt lat="28.7356259" lon="105.575831"><ele>668.26</ele><time>2025-12-27T22:50:06.000Z</time></trkpt>
        <trkpt lat="28.7355783" lon="105.5757278"><ele>667.95</ele><time>2025-12-27T22:50:20.000Z</time></trkpt>
        <trkpt lat="28.7355196" lon="105.5756361"><ele>667.01</ele><time>2025-12-27T22:50:30.000Z</time></trkpt>
        <trkpt lat="28.7354862" lon="105.5755736"><ele>665.86</ele><time>2025-12-27T22:50:36.000Z</time></trkpt>
        <trkpt lat="28.7354463" lon="105.5754914"><ele>663.51</ele><time>2025-12-27T22:51:30.000Z</time></trkpt>
        <trkpt lat="28.7354217" lon="105.5753878"><ele>658.68</ele><time>2025-12-27T22:51:52.000Z</time></trkpt>
        <trkpt lat="28.7354173" lon="105.5752915"><ele>656.31</ele><time>2025-12-27T22:52:02.000Z</time></trkpt>
        <trkpt lat="28.7353978" lon="105.5751927"><ele>654.18</ele><time>2025-12-27T22:52:46.000Z</time></trkpt>
        <trkpt lat="28.7353836" lon="105.5751541"><ele>653.56</ele><time>2025-12-27T22:52:50.000Z</time></trkpt>
        <trkpt lat="28.7353554" lon="105.575078"><ele>653.07</ele><time>2025-12-27T22:53:34.000Z</time></trkpt>
        <trkpt lat="28.7353127" lon="105.5749851"><ele>651.99</ele><time>2025-12-27T22:53:44.000Z</time></trkpt>
        <trkpt lat="28.7352523" lon="105.5748909"><ele>651.4</ele><time>2025-12-27T22:53:56.000Z</time></trkpt>
        <trkpt lat="28.7352243" lon="105.5747781"><ele>651.48</ele><time>2025-12-27T22:54:10.000Z</time></trkpt>
        <trkpt lat="28.7352218" lon="105.5746664"><ele>650.63</ele><time>2025-12-27T22:54:20.000Z</time></trkpt>
        <trkpt lat="28.7352783" lon="105.5745861"><ele>649.88</ele><time>2025-12-27T22:54:38.000Z</time></trkpt>
        <trkpt lat="28.7353029" lon="105.5744862"><ele>648.61</ele><time>2025-12-27T22:54:48.000Z</time></trkpt>
        <trkpt lat="28.7352959" lon="105.5743815"><ele>648</ele><time>2025-12-27T22:54:58.000Z</time></trkpt>
        <trkpt lat="28.7352673" lon="105.5742819"><ele>647.83</ele><time>2025-12-27T22:55:08.000Z</time></trkpt>
        <trkpt lat="28.7352032" lon="105.5742035"><ele>647.33</ele><time>2025-12-27T22:55:20.000Z</time></trkpt>
        <trkpt lat="28.7351148" lon="105.5741393"><ele>647.04</ele><time>2025-12-27T22:55:32.000Z</time></trkpt>
        <trkpt lat="28.7350285" lon="105.5740814"><ele>646.33</ele><time>2025-12-27T22:55:42.000Z</time></trkpt>
        <trkpt lat="28.7349534" lon="105.5740043"><ele>646.08</ele><time>2025-12-27T22:55:52.000Z</time></trkpt>
        <trkpt lat="28.7349096" lon="105.5739009"><ele>645.12</ele><time>2025-12-27T22:56:04.000Z</time></trkpt>
        <trkpt lat="28.7349044" lon="105.5738704"><ele>644.95</ele><time>2025-12-27T22:56:06.000Z</time></trkpt>
        <trkpt lat="28.7348478" lon="105.5738342"><ele>644.58</ele><time>2025-12-27T22:56:52.000Z</time></trkpt>
        <trkpt lat="28.7348077" lon="105.5737395"><ele>644.08</ele><time>2025-12-27T22:57:04.000Z</time></trkpt>
        <trkpt lat="28.7347753" lon="105.5736368"><ele>644.32</ele><time>2025-12-27T22:57:12.000Z</time></trkpt>
        <trkpt lat="28.7346951" lon="105.5735952"><ele>644.97</ele><time>2025-12-27T22:57:24.000Z</time></trkpt>
        <trkpt lat="28.7346068" lon="105.5736436"><ele>644.8</ele><time>2025-12-27T22:57:34.000Z</time></trkpt>
        <trkpt lat="28.7345276" lon="105.5737172"><ele>644.39</ele><time>2025-12-27T22:57:44.000Z</time></trkpt>
        <trkpt lat="28.7344622" lon="105.5738176"><ele>643.51</ele><time>2025-12-27T22:58:00.000Z</time></trkpt>
        <trkpt lat="28.734381" lon="105.5738939"><ele>640.47</ele><time>2025-12-27T22:58:14.000Z</time></trkpt>
        <trkpt lat="28.7343195" lon="105.5739836"><ele>637.57</ele><time>2025-12-27T22:58:24.000Z</time></trkpt>
        <trkpt lat="28.7342327" lon="105.5740597"><ele>635.63</ele><time>2025-12-27T22:58:48.000Z</time></trkpt>
        <trkpt lat="28.7342058" lon="105.5740901"><ele>633.99</ele><time>2025-12-27T22:58:54.000Z</time></trkpt>
        <trkpt lat="28.7341301" lon="105.5741204"><ele>631.84</ele><time>2025-12-27T22:59:04.000Z</time></trkpt>
        <trkpt lat="28.7340325" lon="105.5741348"><ele>631.82</ele><time>2025-12-27T22:59:16.000Z</time></trkpt>
        <trkpt lat="28.7339366" lon="105.5741502"><ele>632.45</ele><time>2025-12-27T22:59:32.000Z</time></trkpt>
        <trkpt lat="28.7338444" lon="105.5741211"><ele>631.93</ele><time>2025-12-27T22:59:48.000Z</time></trkpt>
        <trkpt lat="28.7337602" lon="105.5740741"><ele>630.98</ele><time>2025-12-27T23:00:04.000Z</time></trkpt>
        <trkpt lat="28.7336773" lon="105.5740014"><ele>629.19</ele><time>2025-12-27T23:00:14.000Z</time></trkpt>
        <trkpt lat="28.7336062" lon="105.5739004"><ele>628.59</ele><time>2025-12-27T23:00:24.000Z</time></trkpt>
        <trkpt lat="28.733551" lon="105.5738226"><ele>628.2</ele><time>2025-12-27T23:00:34.000Z</time></trkpt>
        <trkpt lat="28.733551" lon="105.5738226"><ele>628.2</ele><time>2025-12-27T23:06:42.000Z</time></trkpt>
      </trkseg>
      <trkseg>
        <trkpt lat="28.7326546" lon="105.573973"><ele>626.18</ele><time>2025-12-27T23:18:26.000Z</time></trkpt>
        <trkpt lat="28.7326546" lon="105.573973"><ele>626.18</ele><time>2025-12-27T23:18:47.000Z</time></trkpt>
        <trkpt lat="28.7326659" lon="105.5739153"><ele>613.32</ele><time>2025-12-27T23:18:55.000Z</time></trkpt>
        <trkpt lat="28.7326624" lon="105.573994"><ele>606.09</ele><time>2025-12-27T23:19:23.000Z</time></trkpt>
        <trkpt lat="28.7326195" lon="105.5740816"><ele>600.74</ele><time>2025-12-27T23:19:31.000Z</time></trkpt>
        <trkpt lat="28.7325239" lon="105.5741064"><ele>598.21</ele><time>2025-12-27T23:19:41.000Z</time></trkpt>
        <trkpt lat="28.7324438" lon="105.574053"><ele>597.77</ele><time>2025-12-27T23:19:49.000Z</time></trkpt>
        <trkpt lat="28.7323583" lon="105.5739792"><ele>597.64</ele><time>2025-12-27T23:19:59.000Z</time></trkpt>
        <trkpt lat="28.732266" lon="105.5739199"><ele>598.04</ele><time>2025-12-27T23:20:07.000Z</time></trkpt>
        <trkpt lat="28.7321803" lon="105.5738605"><ele>598.11</ele><time>2025-12-27T23:20:15.000Z</time></trkpt>
        <trkpt lat="28.7320973" lon="105.5737891"><ele>598</ele><time>2025-12-27T23:20:25.000Z</time></trkpt>
        <trkpt lat="28.7320177" lon="105.573714"><ele>596.38</ele><time>2025-12-27T23:20:35.000Z</time></trkpt>
        <trkpt lat="28.7319427" lon="105.573634"><ele>594.76</ele><time>2025-12-27T23:20:45.000Z</time></trkpt>
        <trkpt lat="28.7318785" lon="105.573618"><ele>593.18</ele><time>2025-12-27T23:20:53.000Z</time></trkpt>
        <trkpt lat="28.7318364" lon="105.5735435"><ele>592.71</ele><time>2025-12-27T23:21:15.000Z</time></trkpt>
        <trkpt lat="28.7317861" lon="105.5734512"><ele>591.77</ele><time>2025-12-27T23:21:33.000Z</time></trkpt>
        <trkpt lat="28.7316993" lon="105.5734107"><ele>591.41</ele><time>2025-12-27T23:21:43.000Z</time></trkpt>
        <trkpt lat="28.731606" lon="105.5733963"><ele>590.82</ele><time>2025-12-27T23:21:53.000Z</time></trkpt>
        <trkpt lat="28.7315041" lon="105.5733676"><ele>590.68</ele><time>2025-12-27T23:22:05.000Z</time></trkpt>
        <trkpt lat="28.7314031" lon="105.5733372"><ele>590.63</ele><time>2025-12-27T23:22:15.000Z</time></trkpt>
        <trkpt lat="28.7313039" lon="105.573311"><ele>590.38</ele><time>2025-12-27T23:22:27.000Z</time></trkpt>
        <trkpt lat="28.7312178" lon="105.5733463"><ele>589.69</ele><time>2025-12-27T23:22:39.000Z</time></trkpt>
        <trkpt lat="28.7311509" lon="105.5734347"><ele>587.84</ele><time>2025-12-27T23:22:49.000Z</time></trkpt>
        <trkpt lat="28.7310857" lon="105.5735198"><ele>585.82</ele><time>2025-12-27T23:22:57.000Z</time></trkpt>
        <trkpt lat="28.7309916" lon="105.5735551"><ele>583.89</ele><time>2025-12-27T23:23:07.000Z</time></trkpt>
        <trkpt lat="28.7309288" lon="105.5735798"><ele>582.48</ele><time>2025-12-27T23:23:13.000Z</time></trkpt>
        <trkpt lat="28.7308638" lon="105.5735296"><ele>581.59</ele><time>2025-12-27T23:23:45.000Z</time></trkpt>
        <trkpt lat="28.7307911" lon="105.5734607"><ele>580.16</ele><time>2025-12-27T23:23:53.000Z</time></trkpt>
        <trkpt lat="28.7307566" lon="105.5734278"><ele>578.47</ele><time>2025-12-27T23:23:59.000Z</time></trkpt>
        <trkpt lat="28.7306847" lon="105.5733852"><ele>577.34</ele><time>2025-12-27T23:24:23.000Z</time></trkpt>
        <trkpt lat="28.730599" lon="105.5733323"><ele>576.29</ele><time>2025-12-27T23:24:33.000Z</time></trkpt>
        <trkpt lat="28.7304975" lon="105.573315"><ele>575.33</ele><time>2025-12-27T23:24:45.000Z</time></trkpt>
        <trkpt lat="28.7303988" lon="105.573291"><ele>574.09</ele><time>2025-12-27T23:25:05.000Z</time></trkpt>
        <trkpt lat="28.7303367" lon="105.5732147"><ele>573.99</ele><time>2025-12-27T23:25:13.000Z</time></trkpt>
        <trkpt lat="28.7303432" lon="105.5731112"><ele>576.49</ele><time>2025-12-27T23:25:23.000Z</time></trkpt>
        <trkpt lat="28.7304281" lon="105.5730565"><ele>578.32</ele><time>2025-12-27T23:25:33.000Z</time></trkpt>
        <trkpt lat="28.7305202" lon="105.5731112"><ele>577.13</ele><time>2025-12-27T23:25:43.000Z</time></trkpt>
        <trkpt lat="28.7305629" lon="105.5731559"><ele>575.05</ele><time>2025-12-27T23:25:47.000Z</time></trkpt>
        <trkpt lat="28.730622" lon="105.5731194"><ele>573.76</ele><time>2025-12-27T23:26:21.000Z</time></trkpt>
        <trkpt lat="28.7306695" lon="105.5730242"><ele>572.32</ele><time>2025-12-27T23:26:49.000Z</time></trkpt>
        <trkpt lat="28.730656" lon="105.5729146"><ele>571.33</ele><time>2025-12-27T23:27:13.000Z</time></trkpt>
        <trkpt lat="28.7305827" lon="105.5728164"><ele>572.26</ele><time>2025-12-27T23:27:23.000Z</time></trkpt>
        <trkpt lat="28.7305125" lon="105.5727135"><ele>571.65</ele><time>2025-12-27T23:27:33.000Z</time></trkpt>
        <trkpt lat="28.730509" lon="105.5727056"><ele>569.93</ele><time>2025-12-27T23:27:35.000Z</time></trkpt>
        <trkpt lat="28.7304837" lon="105.5726242"><ele>567.59</ele><time>2025-12-27T23:28:27.000Z</time></trkpt>
        <trkpt lat="28.7305245" lon="105.572527"><ele>565.64</ele><time>2025-12-27T23:28:35.000Z</time></trkpt>
        <trkpt lat="28.730616" lon="105.5724617"><ele>564.79</ele><time>2025-12-27T23:28:47.000Z</time></trkpt>
        <trkpt lat="28.7307249" lon="105.5724384"><ele>562.42</ele><time>2025-12-27T23:28:59.000Z</time></trkpt>
        <trkpt lat="28.7308384" lon="105.5724232"><ele>560.54</ele><time>2025-12-27T23:29:13.000Z</time></trkpt>
        <trkpt lat="28.7309347" lon="105.5723875"><ele>560.53</ele><time>2025-12-27T23:29:25.000Z</time></trkpt>
        <trkpt lat="28.7310288" lon="105.5723569"><ele>559.41</ele><time>2025-12-27T23:29:35.000Z</time></trkpt>
        <trkpt lat="28.7311092" lon="105.5723052"><ele>558.42</ele><time>2025-12-27T23:29:45.000Z</time></trkpt>
        <trkpt lat="28.7312008" lon="105.5722738"><ele>557.66</ele><time>2025-12-27T23:29:57.000Z</time></trkpt>
        <trkpt lat="28.7312992" lon="105.5722939"><ele>557.69</ele><time>2025-12-27T23:30:17.000Z</time></trkpt>
        <trkpt lat="28.7313808" lon="105.5723524"><ele>556.47</ele><time>2025-12-27T23:30:27.000Z</time></trkpt>
        <trkpt lat="28.7314279" lon="105.572387"><ele>555.29</ele><time>2025-12-27T23:30:33.000Z</time></trkpt>
        <trkpt lat="28.7314918" lon="105.5724443"><ele>554.36</ele><time>2025-12-27T23:30:49.000Z</time></trkpt>
        <trkpt lat="28.7315632" lon="105.5725055"><ele>551.48</ele><time>2025-12-27T23:30:59.000Z</time></trkpt>
        <trkpt lat="28.7316255" lon="105.5725922"><ele>549.48</ele><time>2025-12-27T23:31:11.000Z</time></trkpt>
        <trkpt lat="28.7316646" lon="105.5726951"><ele>546.96</ele><time>2025-12-27T23:31:21.000Z</time></trkpt>
        <trkpt lat="28.7317394" lon="105.5727202"><ele>545.62</ele><time>2025-12-27T23:31:33.000Z</time></trkpt>
        <trkpt lat="28.7317606" lon="105.5726416"><ele>545.81</ele><time>2025-12-27T23:31:51.000Z</time></trkpt>
        <trkpt lat="28.7317482" lon="105.5725921"><ele>548.88</ele><time>2025-12-27T23:31:59.000Z</time></trkpt>
        <trkpt lat="28.7317676" lon="105.5725004"><ele>551.27</ele><time>2025-12-27T23:32:23.000Z</time></trkpt>
        <trkpt lat="28.7318015" lon="105.5723984"><ele>551.09</ele><time>2025-12-27T23:33:03.000Z</time></trkpt>
        <trkpt lat="28.7318392" lon="105.5722847"><ele>549.96</ele><time>2025-12-27T23:33:55.000Z</time></trkpt>
        <trkpt lat="28.7319206" lon="105.5722494"><ele>549.2</ele><time>2025-12-27T23:34:07.000Z</time></trkpt>
        <trkpt lat="28.7320178" lon="105.572266"><ele>549.57</ele><time>2025-12-27T23:34:19.000Z</time></trkpt>
        <trkpt lat="28.7321145" lon="105.5723002"><ele>549.47</ele><time>2025-12-27T23:34:35.000Z</time></trkpt>
        <trkpt lat="28.7322147" lon="105.5723169"><ele>548.93</ele><time>2025-12-27T23:34:51.000Z</time></trkpt>
        <trkpt lat="28.7323109" lon="105.5723384"><ele>547.83</ele><time>2025-12-27T23:34:59.000Z</time></trkpt>
        <trkpt lat="28.7324017" lon="105.5723822"><ele>546.24</ele><time>2025-12-27T23:35:07.000Z</time></trkpt>
        <trkpt lat="28.7324065" lon="105.5724182"><ele>544.55</ele><time>2025-12-27T23:35:11.000Z</time></trkpt>
        <trkpt lat="28.7324593" lon="105.5724603"><ele>542.04</ele><time>2025-12-27T23:35:25.000Z</time></trkpt>
        <trkpt lat="28.7325485" lon="105.5724717"><ele>539.77</ele><time>2025-12-27T23:35:55.000Z</time></trkpt>
        <trkpt lat="28.7325811" lon="105.5724625"><ele>542.14</ele><time>2025-12-27T23:35:57.000Z</time></trkpt>
        <trkpt lat="28.7326537" lon="105.572442"><ele>544.42</ele><time>2025-12-27T23:36:13.000Z</time></trkpt>
        <trkpt lat="28.732711" lon="105.5723685"><ele>549.68</ele><time>2025-12-27T23:36:41.000Z</time></trkpt>
        <trkpt lat="28.732691" lon="105.5722686"><ele>556.42</ele><time>2025-12-27T23:36:59.000Z</time></trkpt>
        <trkpt lat="28.7326533" lon="105.5721531"><ele>559.88</ele><time>2025-12-27T23:37:13.000Z</time></trkpt>
        <trkpt lat="28.7326879" lon="105.5720521"><ele>561.95</ele><time>2025-12-27T23:37:25.000Z</time></trkpt>
        <trkpt lat="28.7327632" lon="105.5719937"><ele>561.82</ele><time>2025-12-27T23:37:53.000Z</time></trkpt>
        <trkpt lat="28.7328499" lon="105.5719243"><ele>559.89</ele><time>2025-12-27T23:38:35.000Z</time></trkpt>
        <trkpt lat="28.7329336" lon="105.5718531"><ele>560.37</ele><time>2025-12-27T23:38:49.000Z</time></trkpt>
        <trkpt lat="28.7329899" lon="105.5717674"><ele>561.05</ele><time>2025-12-27T23:39:03.000Z</time></trkpt>
        <trkpt lat="28.7330728" lon="105.5717123"><ele>563.53</ele><time>2025-12-27T23:39:17.000Z</time></trkpt>
        <trkpt lat="28.7331628" lon="105.5716677"><ele>565.11</ele><time>2025-12-27T23:39:35.000Z</time></trkpt>
        <trkpt lat="28.7331809" lon="105.5715789"><ele>566.15</ele><time>2025-12-27T23:39:51.000Z</time></trkpt>
        <trkpt lat="28.7332301" lon="105.5714814"><ele>566.6</ele><time>2025-12-27T23:40:03.000Z</time></trkpt>
        <trkpt lat="28.7332907" lon="105.57138"><ele>566.62</ele><time>2025-12-27T23:40:15.000Z</time></trkpt>
        <trkpt lat="28.7333673" lon="105.5713036"><ele>566.59</ele><time>2025-12-27T23:40:27.000Z</time></trkpt>
        <trkpt lat="28.7334347" lon="105.5713452"><ele>567.05</ele><time>2025-12-27T23:40:35.000Z</time></trkpt>
        <trkpt lat="28.7334854" lon="105.5713871"><ele>563.76</ele><time>2025-12-27T23:40:43.000Z</time></trkpt>
        <trkpt lat="28.7335225" lon="105.5713092"><ele>559.86</ele><time>2025-12-27T23:40:55.000Z</time></trkpt>
        <trkpt lat="28.7335177" lon="105.571143"><ele>558.57</ele><time>2025-12-27T23:41:13.000Z</time></trkpt>
        <trkpt lat="28.7335703" lon="105.5710329"><ele>562</ele><time>2025-12-27T23:41:21.000Z</time></trkpt>
        <trkpt lat="28.7336479" lon="105.5710024"><ele>563.65</ele><time>2025-12-27T23:41:31.000Z</time></trkpt>
        <trkpt lat="28.7337195" lon="105.5710675"><ele>562.72</ele><time>2025-12-27T23:41:43.000Z</time></trkpt>
        <trkpt lat="28.7337882" lon="105.5711628"><ele>561.41</ele><time>2025-12-27T23:41:55.000Z</time></trkpt>
        <trkpt lat="28.7338464" lon="105.5712679"><ele>560.24</ele><time>2025-12-27T23:42:05.000Z</time></trkpt>
        <trkpt lat="28.7339013" lon="105.5713722"><ele>559.11</ele><time>2025-12-27T23:42:17.000Z</time></trkpt>
        <trkpt lat="28.7339647" lon="105.5714571"><ele>557.63</ele><time>2025-12-27T23:42:27.000Z</time></trkpt>
        <trkpt lat="28.7340254" lon="105.5715388"><ele>556.93</ele><time>2025-12-27T23:42:37.000Z</time></trkpt>
        <trkpt lat="28.7341111" lon="105.5715772"><ele>556.68</ele><time>2025-12-27T23:42:57.000Z</time></trkpt>
        <trkpt lat="28.7342024" lon="105.5715852"><ele>557.62</ele><time>2025-12-27T23:43:05.000Z</time></trkpt>
        <trkpt lat="28.7342741" lon="105.5716501"><ele>558.28</ele><time>2025-12-27T23:43:19.000Z</time></trkpt>
        <trkpt lat="28.734286" lon="105.5716767"><ele>560.31</ele><time>2025-12-27T23:43:21.000Z</time></trkpt>
        <trkpt lat="28.734318" lon="105.571747"><ele>561.32</ele><time>2025-12-27T23:43:45.000Z</time></trkpt>
        <trkpt lat="28.7343816" lon="105.571822"><ele>560.03</ele><time>2025-12-27T23:44:05.000Z</time></trkpt>
        <trkpt lat="28.7344583" lon="105.5718945"><ele>559.48</ele><time>2025-12-27T23:44:27.000Z</time></trkpt>
        <trkpt lat="28.7345531" lon="105.5719241"><ele>559.43</ele><time>2025-12-27T23:44:39.000Z</time></trkpt>
        <trkpt lat="28.7345827" lon="105.5719525"><ele>560.1</ele><time>2025-12-27T23:44:45.000Z</time></trkpt>
        <trkpt lat="28.7346417" lon="105.572009"><ele>559.71</ele><time>2025-12-27T23:45:21.000Z</time></trkpt>
        <trkpt lat="28.7346926" lon="105.5720487"><ele>560.14</ele><time>2025-12-27T23:45:35.000Z</time></trkpt>
        <trkpt lat="28.7347655" lon="105.5721021"><ele>560.82</ele><time>2025-12-27T23:46:05.000Z</time></trkpt>
        <trkpt lat="28.7348395" lon="105.5721687"><ele>560.92</ele><time>2025-12-27T23:46:41.000Z</time></trkpt>
        <trkpt lat="28.734914" lon="105.572132"><ele>559.57</ele><time>2025-12-27T23:46:49.000Z</time></trkpt>
        <trkpt lat="28.7349479" lon="105.5720875"><ele>561.14</ele><time>2025-12-27T23:46:53.000Z</time></trkpt>
        <trkpt lat="28.7350265" lon="105.5720712"><ele>562.04</ele><time>2025-12-27T23:47:11.000Z</time></trkpt>
        <trkpt lat="28.7351173" lon="105.5720794"><ele>565.02</ele><time>2025-12-27T23:47:35.000Z</time></trkpt>
        <trkpt lat="28.7352075" lon="105.5721152"><ele>568.21</ele><time>2025-12-27T23:48:11.000Z</time></trkpt>
        <trkpt lat="28.7353028" lon="105.5721102"><ele>570.09</ele><time>2025-12-27T23:48:35.000Z</time></trkpt>
        <trkpt lat="28.7353953" lon="105.5721365"><ele>573.22</ele><time>2025-12-27T23:48:47.000Z</time></trkpt>
        <trkpt lat="28.735477" lon="105.5721966"><ele>575.07</ele><time>2025-12-27T23:49:01.000Z</time></trkpt>
        <trkpt lat="28.7355678" lon="105.5722047"><ele>576.08</ele><time>2025-12-27T23:49:11.000Z</time></trkpt>
        <trkpt lat="28.7356589" lon="105.5722014"><ele>575.86</ele><time>2025-12-27T23:49:19.000Z</time></trkpt>
        <trkpt lat="28.7356954" lon="105.5721682"><ele>575.98</ele><time>2025-12-27T23:49:25.000Z</time></trkpt>
        <trkpt lat="28.7357727" lon="105.572125"><ele>577.52</ele><time>2025-12-27T23:49:33.000Z</time></trkpt>
        <trkpt lat="28.7358151" lon="105.5721383"><ele>577.5</ele><time>2025-12-27T23:49:39.000Z</time></trkpt>
        <trkpt lat="28.7358926" lon="105.5721566"><ele>576.11</ele><time>2025-12-27T23:49:59.000Z</time></trkpt>
        <trkpt lat="28.7359906" lon="105.5721321"><ele>576.88</ele><time>2025-12-27T23:50:09.000Z</time></trkpt>
        <trkpt lat="28.736018" lon="105.5721274"><ele>576.9</ele><time>2025-12-27T23:50:11.000Z</time></trkpt>
        <trkpt lat="28.7360802" lon="105.5721733"><ele>576.54</ele><time>2025-12-27T23:50:25.000Z</time></trkpt>
        <trkpt lat="28.736169" lon="105.5722127"><ele>575.57</ele><time>2025-12-27T23:50:35.000Z</time></trkpt>
        <trkpt lat="28.7362668" lon="105.5722606"><ele>575.64</ele><time>2025-12-27T23:50:47.000Z</time></trkpt>
        <trkpt lat="28.7363628" lon="105.572321"><ele>575.15</ele><time>2025-12-27T23:51:07.000Z</time></trkpt>
        <trkpt lat="28.7364483" lon="105.5723819"><ele>574.99</ele><time>2025-12-27T23:51:17.000Z</time></trkpt>
        <trkpt lat="28.7365375" lon="105.572431"><ele>574.03</ele><time>2025-12-27T23:51:27.000Z</time></trkpt>
        <trkpt lat="28.736631" lon="105.5724133"><ele>574.25</ele><time>2025-12-27T23:51:37.000Z</time></trkpt>
        <trkpt lat="28.7367327" lon="105.5724217"><ele>577.66</ele><time>2025-12-27T23:51:49.000Z</time></trkpt>
        <trkpt lat="28.7368325" lon="105.5724272"><ele>581.18</ele><time>2025-12-27T23:51:57.000Z</time></trkpt>
        <trkpt lat="28.7369281" lon="105.5724483"><ele>581.7</ele><time>2025-12-27T23:52:05.000Z</time></trkpt>
        <trkpt lat="28.7370285" lon="105.5724495"><ele>582.37</ele><time>2025-12-27T23:52:17.000Z</time></trkpt>
        <trkpt lat="28.7371267" lon="105.5724776"><ele>583.92</ele><time>2025-12-27T23:52:29.000Z</time></trkpt>
        <trkpt lat="28.7372028" lon="105.5725366"><ele>583.96</ele><time>2025-12-27T23:52:43.000Z</time></trkpt>
        <trkpt lat="28.73729" lon="105.5725529"><ele>585.89</ele><time>2025-12-27T23:53:23.000Z</time></trkpt>
        <trkpt lat="28.7373662" lon="105.5725063"><ele>589.61</ele><time>2025-12-27T23:53:47.000Z</time></trkpt>
        <trkpt lat="28.7373984" lon="105.572563"><ele>592.99</ele><time>2025-12-27T23:53:59.000Z</time></trkpt>
        <trkpt lat="28.7374235" lon="105.572665"><ele>594.04</ele><time>2025-12-27T23:54:35.000Z</time></trkpt>
        <trkpt lat="28.7374663" lon="105.5726"><ele>598.5</ele><time>2025-12-27T23:57:51.000Z</time></trkpt>
        <trkpt lat="28.7375293" lon="105.572507"><ele>604.1</ele><time>2025-12-27T23:58:15.000Z</time></trkpt>
        <trkpt lat="28.7376114" lon="105.5724587"><ele>606.84</ele><time>2025-12-27T23:58:33.000Z</time></trkpt>
        <trkpt lat="28.7377029" lon="105.5724724"><ele>607.74</ele><time>2025-12-27T23:58:49.000Z</time></trkpt>
        <trkpt lat="28.7377248" lon="105.5724848"><ele>607.04</ele><time>2025-12-27T23:58:51.000Z</time></trkpt>
        <trkpt lat="28.7377895" lon="105.5724613"><ele>606.5</ele><time>2025-12-27T23:59:23.000Z</time></trkpt>
        <trkpt lat="28.7378782" lon="105.5724453"><ele>607.51</ele><time>2025-12-27T23:59:35.000Z</time></trkpt>
        <trkpt lat="28.7379751" lon="105.5724451"><ele>610.46</ele><time>2025-12-27T23:59:49.000Z</time></trkpt>
        <trkpt lat="28.7380778" lon="105.5724132"><ele>611.8</ele><time>2025-12-27T23:59:57.000Z</time></trkpt>
        <trkpt lat="28.7381731" lon="105.5724195"><ele>615.53</ele><time>2025-12-28T00:00:15.000Z</time></trkpt>
        <trkpt lat="28.7381867" lon="105.57234"><ele>618.59</ele><time>2025-12-28T00:00:25.000Z</time></trkpt>
        <trkpt lat="28.7382114" lon="105.5722351"><ele>622.39</ele><time>2025-12-28T00:00:51.000Z</time></trkpt>
        <trkpt lat="28.7382557" lon="105.5721341"><ele>624.85</ele><time>2025-12-28T00:01:23.000Z</time></trkpt>
        <trkpt lat="28.7383328" lon="105.5720776"><ele>625.82</ele><time>2025-12-28T00:02:18.000Z</time></trkpt>
        <trkpt lat="28.7384078" lon="105.5720112"><ele>625.54</ele><time>2025-12-28T00:02:30.000Z</time></trkpt>
        <trkpt lat="28.7384913" lon="105.5719453"><ele>626.21</ele><time>2025-12-28T00:02:56.000Z</time></trkpt>
        <trkpt lat="28.7385246" lon="105.5718516"><ele>628.26</ele><time>2025-12-28T00:03:04.000Z</time></trkpt>
        <trkpt lat="28.7385908" lon="105.5717666"><ele>631.69</ele><time>2025-12-28T00:03:18.000Z</time></trkpt>
        <trkpt lat="28.7386712" lon="105.5716905"><ele>634.14</ele><time>2025-12-28T00:03:30.000Z</time></trkpt>
        <trkpt lat="28.7387623" lon="105.5716144"><ele>635.95</ele><time>2025-12-28T00:04:06.000Z</time></trkpt>
        <trkpt lat="28.7388383" lon="105.5715737"><ele>636.31</ele><time>2025-12-28T00:04:16.000Z</time></trkpt>
        <trkpt lat="28.7389138" lon="105.5715063"><ele>636.05</ele><time>2025-12-28T00:04:30.000Z</time></trkpt>
        <trkpt lat="28.7389856" lon="105.5714247"><ele>634.31</ele><time>2025-12-28T00:04:46.000Z</time></trkpt>
        <trkpt lat="28.7390639" lon="105.5713538"><ele>634.69</ele><time>2025-12-28T00:04:56.000Z</time></trkpt>
        <trkpt lat="28.7390782" lon="105.5713504"><ele>634.22</ele><time>2025-12-28T00:04:58.000Z</time></trkpt>
        <trkpt lat="28.7391445" lon="105.5713049"><ele>632.95</ele><time>2025-12-28T00:05:12.000Z</time></trkpt>
        <trkpt lat="28.7392114" lon="105.5712239"><ele>631.87</ele><time>2025-12-28T00:05:28.000Z</time></trkpt>
        <trkpt lat="28.7393006" lon="105.5711575"><ele>631.55</ele><time>2025-12-28T00:05:46.000Z</time></trkpt>
        <trkpt lat="28.7393346" lon="105.5711289"><ele>631.95</ele><time>2025-12-28T00:05:50.000Z</time></trkpt>
        <trkpt lat="28.7393787" lon="105.5710495"><ele>631.85</ele><time>2025-12-28T00:06:16.000Z</time></trkpt>
        <trkpt lat="28.7394376" lon="105.5709579"><ele>630.83</ele><time>2025-12-28T00:06:30.000Z</time></trkpt>
        <trkpt lat="28.7394887" lon="105.5708636"><ele>629.45</ele><time>2025-12-28T00:06:40.000Z</time></trkpt>
        <trkpt lat="28.7395229" lon="105.5707623"><ele>628.36</ele><time>2025-12-28T00:06:56.000Z</time></trkpt>
        <trkpt lat="28.7395481" lon="105.5706543"><ele>630.08</ele><time>2025-12-28T00:07:04.000Z</time></trkpt>
        <trkpt lat="28.7396175" lon="105.5705704"><ele>632.64</ele><time>2025-12-28T00:07:14.000Z</time></trkpt>
        <trkpt lat="28.7396743" lon="105.5704784"><ele>634.11</ele><time>2025-12-28T00:07:28.000Z</time></trkpt>
        <trkpt lat="28.7397117" lon="105.5703757"><ele>636.1</ele><time>2025-12-28T00:07:56.000Z</time></trkpt>
        <trkpt lat="28.739693" lon="105.5702775"><ele>638.22</ele><time>2025-12-28T00:08:12.000Z</time></trkpt>
        <trkpt lat="28.7396806" lon="105.5701622"><ele>640.87</ele><time>2025-12-28T00:08:34.000Z</time></trkpt>
        <trkpt lat="28.7397257" lon="105.5700811"><ele>641.82</ele><time>2025-12-28T00:09:06.000Z</time></trkpt>
        <trkpt lat="28.7397423" lon="105.5699729"><ele>641</ele><time>2025-12-28T00:09:24.000Z</time></trkpt>
        <trkpt lat="28.7397823" lon="105.5698689"><ele>640.58</ele><time>2025-12-28T00:09:36.000Z</time></trkpt>
        <trkpt lat="28.7398186" lon="105.5697706"><ele>639.51</ele><time>2025-12-28T00:09:46.000Z</time></trkpt>
        <trkpt lat="28.7398151" lon="105.5697454"><ele>639.34</ele><time>2025-12-28T00:09:48.000Z</time></trkpt>
        <trkpt lat="28.7397059" lon="105.5697191"><ele>639.96</ele><time>2025-12-28T00:11:32.000Z</time></trkpt>
        <trkpt lat="28.7396254" lon="105.5696671"><ele>640.73</ele><time>2025-12-28T00:11:54.000Z</time></trkpt>
        <trkpt lat="28.7395445" lon="105.5695977"><ele>639.9</ele><time>2025-12-28T00:12:18.000Z</time></trkpt>
        <trkpt lat="28.7395158" lon="105.5694906"><ele>638</ele><time>2025-12-28T00:12:28.000Z</time></trkpt>
        <trkpt lat="28.7395171" lon="105.5694616"><ele>634.47</ele><time>2025-12-28T00:12:30.000Z</time></trkpt>
        <trkpt lat="28.7395463" lon="105.5693826"><ele>632.12</ele><time>2025-12-28T00:12:38.000Z</time></trkpt>
        <trkpt lat="28.7395733" lon="105.569434"><ele>630.22</ele><time>2025-12-28T00:12:44.000Z</time></trkpt>
        <trkpt lat="28.7395265" lon="105.5694028"><ele>626.5</ele><time>2025-12-28T00:12:52.000Z</time></trkpt>
        <trkpt lat="28.7394752" lon="105.5693198"><ele>624.67</ele><time>2025-12-28T00:13:00.000Z</time></trkpt>
        <trkpt lat="28.7394727" lon="105.5692115"><ele>626.37</ele><time>2025-12-28T00:13:08.000Z</time></trkpt>
        <trkpt lat="28.7394709" lon="105.5691614"><ele>626.98</ele><time>2025-12-28T00:13:12.000Z</time></trkpt>
        <trkpt lat="28.7394694" lon="105.5690645"><ele>627.65</ele><time>2025-12-28T00:13:22.000Z</time></trkpt>
        <trkpt lat="28.7394344" lon="105.5690218"><ele>627.41</ele><time>2025-12-28T00:13:28.000Z</time></trkpt>
        <trkpt lat="28.7394268" lon="105.5689339"><ele>626.79</ele><time>2025-12-28T00:13:48.000Z</time></trkpt>
        <trkpt lat="28.7394166" lon="105.5688251"><ele>626.63</ele><time>2025-12-28T00:14:00.000Z</time></trkpt>
        <trkpt lat="28.7394177" lon="105.5687168"><ele>627.23</ele><time>2025-12-28T00:14:10.000Z</time></trkpt>
        <trkpt lat="28.7394368" lon="105.5686051"><ele>627.3</ele><time>2025-12-28T00:14:20.000Z</time></trkpt>
        <trkpt lat="28.7395036" lon="105.5685233"><ele>625.05</ele><time>2025-12-28T00:14:36.000Z</time></trkpt>
        <trkpt lat="28.7395853" lon="105.5684615"><ele>622.78</ele><time>2025-12-28T00:14:46.000Z</time></trkpt>
        <trkpt lat="28.7396771" lon="105.5684044"><ele>621.29</ele><time>2025-12-28T00:14:58.000Z</time></trkpt>
        <trkpt lat="28.7397359" lon="105.5683193"><ele>621.83</ele><time>2025-12-28T00:15:08.000Z</time></trkpt>
        <trkpt lat="28.7397518" lon="105.5682736"><ele>622.01</ele><time>2025-12-28T00:15:12.000Z</time></trkpt>
        <trkpt lat="28.7398017" lon="105.5681985"><ele>622.31</ele><time>2025-12-28T00:15:36.000Z</time></trkpt>
        <trkpt lat="28.739878" lon="105.5681359"><ele>623</ele><time>2025-12-28T00:15:48.000Z</time></trkpt>
        <trkpt lat="28.7399362" lon="105.5680447"><ele>624.53</ele><time>2025-12-28T00:16:10.000Z</time></trkpt>
        <trkpt lat="28.7399709" lon="105.567942"><ele>627.66</ele><time>2025-12-28T00:16:22.000Z</time></trkpt>
        <trkpt lat="28.7399528" lon="105.5679057"><ele>630.33</ele><time>2025-12-28T00:16:26.000Z</time></trkpt>
        <trkpt lat="28.7399745" lon="105.567834"><ele>632.46</ele><time>2025-12-28T00:16:42.000Z</time></trkpt>
        <trkpt lat="28.7400037" lon="105.5677291"><ele>633.24</ele><time>2025-12-28T00:16:50.000Z</time></trkpt>
        <trkpt lat="28.7400524" lon="105.5676353"><ele>633.44</ele><time>2025-12-28T00:16:58.000Z</time></trkpt>
        <trkpt lat="28.7401055" lon="105.5675921"><ele>633.63</ele><time>2025-12-28T00:17:06.000Z</time></trkpt>
        <trkpt lat="28.7401786" lon="105.5675402"><ele>632.4</ele><time>2025-12-28T00:17:20.000Z</time></trkpt>
        <trkpt lat="28.7402256" lon="105.5674519"><ele>633.07</ele><time>2025-12-28T00:17:48.000Z</time></trkpt>
        <trkpt lat="28.7402233" lon="105.5673306"><ele>635.38</ele><time>2025-12-28T00:19:10.000Z</time></trkpt>
        <trkpt lat="28.7402434" lon="105.567229"><ele>637.58</ele><time>2025-12-28T00:19:34.000Z</time></trkpt>
        <trkpt lat="28.7402677" lon="105.5671287"><ele>639.88</ele><time>2025-12-28T00:20:02.000Z</time></trkpt>
        <trkpt lat="28.7403059" lon="105.5670275"><ele>644.26</ele><time>2025-12-28T00:20:26.000Z</time></trkpt>
        <trkpt lat="28.7403541" lon="105.5669327"><ele>648.31</ele><time>2025-12-28T00:20:52.000Z</time></trkpt>
        <trkpt lat="28.7404057" lon="105.5668337"><ele>652</ele><time>2025-12-28T00:21:04.000Z</time></trkpt>
        <trkpt lat="28.7404423" lon="105.5667745"><ele>654.22</ele><time>2025-12-28T00:21:14.000Z</time></trkpt>
        <trkpt lat="28.7405196" lon="105.5667454"><ele>655.89</ele><time>2025-12-28T00:21:28.000Z</time></trkpt>
        <trkpt lat="28.740612" lon="105.5667205"><ele>656.28</ele><time>2025-12-28T00:21:40.000Z</time></trkpt>
        <trkpt lat="28.7407132" lon="105.5667089"><ele>655.78</ele><time>2025-12-28T00:21:54.000Z</time></trkpt>
        <trkpt lat="28.7407132" lon="105.5667089"><ele>655.78</ele><time>2025-12-28T00:21:58.000Z</time></trkpt>
      </trkseg>
  </trk>
</gpx>